<?xml version="1.0" encoding="UTF-8" standalone="no" ?>
<gpx xmlns="http://www.topografix.com/GPX/1/1" xmlns:xsi="http://www.w3.org/2001/XMLSchema-instance" xsi:schemaLocation="http://www.topografix.com/GPX/1/1 http://www.topografix.com/GPX/1/1/gpx.xsd" version="1.1" creator="VisuGPX - https://www.visugpx.com">
  <metadata>
    <name>Dimanche 3 Octobre</name>
    <desc><![CDATA[Dimanche 3 Octobre 2010]]></desc>
  </metadata>
  <trk>
    <name><![CDATA[ACTIVE LOG 001]]></name>
    <trkseg>
      <trkpt lat="47.17704" lon="-1.62288">
        <ele>23.2089844</ele>
        <time>2010-10-03T06:37:25Z</time>
      </trkpt>
      <trkpt lat="47.17716" lon="-1.6223">
        <ele>25.1317139</ele>
        <time>2010-10-03T06:38:19Z</time>
      </trkpt>
      <trkpt lat="47.17693" lon="-1.62189">
        <ele>26.5736084</ele>
        <time>2010-10-03T06:38:33Z</time>
      </trkpt>
      <trkpt lat="47.17646" lon="-1.62171">
        <ele>27.5349121</ele>
        <time>2010-10-03T06:38:45Z</time>
      </trkpt>
      <trkpt lat="47.17598" lon="-1.62151">
        <ele>25.6123047</ele>
        <time>2010-10-03T06:38:53Z</time>
      </trkpt>
      <trkpt lat="47.17554" lon="-1.62129">
        <ele>25.6123047</ele>
        <time>2010-10-03T06:39:02Z</time>
      </trkpt>
      <trkpt lat="47.17506" lon="-1.62121">
        <ele>24.651001</ele>
        <time>2010-10-03T06:39:16Z</time>
      </trkpt>
      <trkpt lat="47.1746" lon="-1.62109">
        <ele>23.6895752</ele>
        <time>2010-10-03T06:39:26Z</time>
      </trkpt>
      <trkpt lat="47.17412" lon="-1.62105">
        <ele>21.286377</ele>
        <time>2010-10-03T06:39:35Z</time>
      </trkpt>
      <trkpt lat="47.17369" lon="-1.62103">
        <ele>19.3637695</ele>
        <time>2010-10-03T06:39:47Z</time>
      </trkpt>
      <trkpt lat="47.17321" lon="-1.62112">
        <ele>19.3637695</ele>
        <time>2010-10-03T06:39:57Z</time>
      </trkpt>
      <trkpt lat="47.17273" lon="-1.62129">
        <ele>19.3637695</ele>
        <time>2010-10-03T06:40:08Z</time>
      </trkpt>
      <trkpt lat="47.17234" lon="-1.62165">
        <ele>19.3637695</ele>
        <time>2010-10-03T06:40:21Z</time>
      </trkpt>
      <trkpt lat="47.17189" lon="-1.62187">
        <ele>18.4023438</ele>
        <time>2010-10-03T06:40:31Z</time>
      </trkpt>
      <trkpt lat="47.17145" lon="-1.62207">
        <ele>17.9217529</ele>
        <time>2010-10-03T06:40:41Z</time>
      </trkpt>
      <trkpt lat="47.17097" lon="-1.62227">
        <ele>18.4023438</ele>
        <time>2010-10-03T06:40:52Z</time>
      </trkpt>
      <trkpt lat="47.17083" lon="-1.6228">
        <ele>18.4023438</ele>
        <time>2010-10-03T06:41:03Z</time>
      </trkpt>
      <trkpt lat="47.17095" lon="-1.62335">
        <ele>17.9217529</ele>
        <time>2010-10-03T06:41:13Z</time>
      </trkpt>
      <trkpt lat="47.17093" lon="-1.62403">
        <ele>18.4023438</ele>
        <time>2010-10-03T06:41:25Z</time>
      </trkpt>
      <trkpt lat="47.17051" lon="-1.6243">
        <ele>18.8830566</ele>
        <time>2010-10-03T06:41:35Z</time>
      </trkpt>
      <trkpt lat="47.17007" lon="-1.62455">
        <ele>19.3637695</ele>
        <time>2010-10-03T06:41:45Z</time>
      </trkpt>
      <trkpt lat="47.16964" lon="-1.62481">
        <ele>20.3249512</ele>
        <time>2010-10-03T06:41:56Z</time>
      </trkpt>
      <trkpt lat="47.16943" lon="-1.62521">
        <ele>19.8443604</ele>
        <time>2010-10-03T06:42:09Z</time>
      </trkpt>
      <trkpt lat="47.169" lon="-1.6251">
        <ele>21.7669678</ele>
        <time>2010-10-03T06:42:20Z</time>
      </trkpt>
      <trkpt lat="47.16854" lon="-1.62494">
        <ele>23.2089844</ele>
        <time>2010-10-03T06:42:31Z</time>
      </trkpt>
      <trkpt lat="47.16808" lon="-1.62481">
        <ele>23.6895752</ele>
        <time>2010-10-03T06:42:41Z</time>
      </trkpt>
      <trkpt lat="47.16759" lon="-1.62462">
        <ele>23.6895752</ele>
        <time>2010-10-03T06:42:52Z</time>
      </trkpt>
      <trkpt lat="47.16711" lon="-1.62458">
        <ele>22.7282715</ele>
        <time>2010-10-03T06:43:04Z</time>
      </trkpt>
      <trkpt lat="47.16666" lon="-1.62472">
        <ele>23.2089844</ele>
        <time>2010-10-03T06:43:14Z</time>
      </trkpt>
      <trkpt lat="47.16627" lon="-1.62509">
        <ele>22.7282715</ele>
        <time>2010-10-03T06:43:23Z</time>
      </trkpt>
      <trkpt lat="47.16588" lon="-1.62542">
        <ele>22.7282715</ele>
        <time>2010-10-03T06:43:35Z</time>
      </trkpt>
      <trkpt lat="47.16552" lon="-1.62582">
        <ele>23.6895752</ele>
        <time>2010-10-03T06:43:46Z</time>
      </trkpt>
      <trkpt lat="47.16522" lon="-1.62637">
        <ele>26.0928955</ele>
        <time>2010-10-03T06:43:58Z</time>
      </trkpt>
      <trkpt lat="47.16524" lon="-1.627">
        <ele>28.0155029</ele>
        <time>2010-10-03T06:44:10Z</time>
      </trkpt>
      <trkpt lat="47.16552" lon="-1.62752">
        <ele>27.5349121</ele>
        <time>2010-10-03T06:44:20Z</time>
      </trkpt>
      <trkpt lat="47.16584" lon="-1.62805">
        <ele>26.0928955</ele>
        <time>2010-10-03T06:44:29Z</time>
      </trkpt>
      <trkpt lat="47.16611" lon="-1.62862">
        <ele>26.0928955</ele>
        <time>2010-10-03T06:44:38Z</time>
      </trkpt>
      <trkpt lat="47.16607" lon="-1.62912">
        <ele>26.0928955</ele>
        <time>2010-10-03T06:44:50Z</time>
      </trkpt>
      <trkpt lat="47.16563" lon="-1.62935">
        <ele>27.0543213</ele>
        <time>2010-10-03T06:45:00Z</time>
      </trkpt>
      <trkpt lat="47.16517" lon="-1.62957">
        <ele>28.4962158</ele>
        <time>2010-10-03T06:45:11Z</time>
      </trkpt>
      <trkpt lat="47.16473" lon="-1.62983">
        <ele>30.4188232</ele>
        <time>2010-10-03T06:45:22Z</time>
      </trkpt>
      <trkpt lat="47.1645" lon="-1.63045">
        <ele>31.380127</ele>
        <time>2010-10-03T06:45:32Z</time>
      </trkpt>
      <trkpt lat="47.16438" lon="-1.63114">
        <ele>30.4188232</ele>
        <time>2010-10-03T06:45:43Z</time>
      </trkpt>
      <trkpt lat="47.16443" lon="-1.63185">
        <ele>29.4575195</ele>
        <time>2010-10-03T06:45:52Z</time>
      </trkpt>
      <trkpt lat="47.16461" lon="-1.63254">
        <ele>29.4575195</ele>
        <time>2010-10-03T06:46:02Z</time>
      </trkpt>
      <trkpt lat="47.16489" lon="-1.63315">
        <ele>28.4962158</ele>
        <time>2010-10-03T06:46:12Z</time>
      </trkpt>
      <trkpt lat="47.16515" lon="-1.63369">
        <ele>28.0155029</ele>
        <time>2010-10-03T06:46:21Z</time>
      </trkpt>
      <trkpt lat="47.1655" lon="-1.63418">
        <ele>28.0155029</ele>
        <time>2010-10-03T06:46:31Z</time>
      </trkpt>
      <trkpt lat="47.16586" lon="-1.63468">
        <ele>28.4962158</ele>
        <time>2010-10-03T06:46:41Z</time>
      </trkpt>
      <trkpt lat="47.16618" lon="-1.63514">
        <ele>29.4575195</ele>
        <time>2010-10-03T06:46:50Z</time>
      </trkpt>
      <trkpt lat="47.16649" lon="-1.63563">
        <ele>30.4188232</ele>
        <time>2010-10-03T06:47:00Z</time>
      </trkpt>
      <trkpt lat="47.1661" lon="-1.63578">
        <ele>30.8995361</ele>
        <time>2010-10-03T06:47:10Z</time>
      </trkpt>
      <trkpt lat="47.16561" lon="-1.63575">
        <ele>29.9381104</ele>
        <time>2010-10-03T06:47:21Z</time>
      </trkpt>
      <trkpt lat="47.16511" lon="-1.63567">
        <ele>29.4575195</ele>
        <time>2010-10-03T06:47:30Z</time>
      </trkpt>
      <trkpt lat="47.16465" lon="-1.6356">
        <ele>32.3415527</ele>
        <time>2010-10-03T06:47:40Z</time>
      </trkpt>
      <trkpt lat="47.16416" lon="-1.63556">
        <ele>32.8222656</ele>
        <time>2010-10-03T06:47:51Z</time>
      </trkpt>
      <trkpt lat="47.1637" lon="-1.63553">
        <ele>30.4188232</ele>
        <time>2010-10-03T06:48:00Z</time>
      </trkpt>
      <trkpt lat="47.16364" lon="-1.63571">
        <ele>28.4962158</ele>
        <time>2010-10-03T06:48:12Z</time>
      </trkpt>
      <trkpt lat="47.16408" lon="-1.63585">
        <ele>28.4962158</ele>
        <time>2010-10-03T06:48:21Z</time>
      </trkpt>
      <trkpt lat="47.16428" lon="-1.63646">
        <ele>28.9769287</ele>
        <time>2010-10-03T06:48:31Z</time>
      </trkpt>
      <trkpt lat="47.16453" lon="-1.63707">
        <ele>29.9381104</ele>
        <time>2010-10-03T06:48:43Z</time>
      </trkpt>
      <trkpt lat="47.16472" lon="-1.63773">
        <ele>32.8222656</ele>
        <time>2010-10-03T06:48:55Z</time>
      </trkpt>
      <trkpt lat="47.16489" lon="-1.63841">
        <ele>36.1867676</ele>
        <time>2010-10-03T06:49:07Z</time>
      </trkpt>
      <trkpt lat="47.1645" lon="-1.63876">
        <ele>35.7060547</ele>
        <time>2010-10-03T06:49:18Z</time>
      </trkpt>
      <trkpt lat="47.16409" lon="-1.63906">
        <ele>32.8222656</ele>
        <time>2010-10-03T06:49:29Z</time>
      </trkpt>
      <trkpt lat="47.16369" lon="-1.63938">
        <ele>33.7834473</ele>
        <time>2010-10-03T06:49:41Z</time>
      </trkpt>
      <trkpt lat="47.16325" lon="-1.63967">
        <ele>33.3028564</ele>
        <time>2010-10-03T06:49:51Z</time>
      </trkpt>
      <trkpt lat="47.16285" lon="-1.63997">
        <ele>32.8222656</ele>
        <time>2010-10-03T06:50:01Z</time>
      </trkpt>
      <trkpt lat="47.16238" lon="-1.64033">
        <ele>30.8995361</ele>
        <time>2010-10-03T06:50:11Z</time>
      </trkpt>
      <trkpt lat="47.162" lon="-1.64074">
        <ele>28.4962158</ele>
        <time>2010-10-03T06:50:20Z</time>
      </trkpt>
      <trkpt lat="47.1616" lon="-1.64118">
        <ele>28.0155029</ele>
        <time>2010-10-03T06:50:30Z</time>
      </trkpt>
      <trkpt lat="47.16142" lon="-1.6418">
        <ele>25.6123047</ele>
        <time>2010-10-03T06:50:39Z</time>
      </trkpt>
      <trkpt lat="47.16123" lon="-1.64241">
        <ele>24.651001</ele>
        <time>2010-10-03T06:50:48Z</time>
      </trkpt>
      <trkpt lat="47.16092" lon="-1.64295">
        <ele>23.2089844</ele>
        <time>2010-10-03T06:50:58Z</time>
      </trkpt>
      <trkpt lat="47.16048" lon="-1.64328">
        <ele>22.7282715</ele>
        <time>2010-10-03T06:51:08Z</time>
      </trkpt>
      <trkpt lat="47.1601" lon="-1.64373">
        <ele>22.7282715</ele>
        <time>2010-10-03T06:51:18Z</time>
      </trkpt>
      <trkpt lat="47.15972" lon="-1.6442">
        <ele>24.1702881</ele>
        <time>2010-10-03T06:51:29Z</time>
      </trkpt>
      <trkpt lat="47.15965" lon="-1.64481">
        <ele>24.1702881</ele>
        <time>2010-10-03T06:51:40Z</time>
      </trkpt>
      <trkpt lat="47.15977" lon="-1.64548">
        <ele>24.651001</ele>
        <time>2010-10-03T06:51:50Z</time>
      </trkpt>
      <trkpt lat="47.15998" lon="-1.64613">
        <ele>23.2089844</ele>
        <time>2010-10-03T06:52:00Z</time>
      </trkpt>
      <trkpt lat="47.16018" lon="-1.64678">
        <ele>23.2089844</ele>
        <time>2010-10-03T06:52:10Z</time>
      </trkpt>
      <trkpt lat="47.16034" lon="-1.64745">
        <ele>24.651001</ele>
        <time>2010-10-03T06:52:21Z</time>
      </trkpt>
      <trkpt lat="47.16025" lon="-1.64816">
        <ele>22.7282715</ele>
        <time>2010-10-03T06:52:32Z</time>
      </trkpt>
      <trkpt lat="47.16027" lon="-1.64886">
        <ele>20.3249512</ele>
        <time>2010-10-03T06:52:43Z</time>
      </trkpt>
      <trkpt lat="47.16044" lon="-1.64954">
        <ele>20.8056641</ele>
        <time>2010-10-03T06:52:54Z</time>
      </trkpt>
      <trkpt lat="47.16084" lon="-1.64984">
        <ele>23.2089844</ele>
        <time>2010-10-03T06:53:04Z</time>
      </trkpt>
      <trkpt lat="47.16125" lon="-1.65018">
        <ele>25.6123047</ele>
        <time>2010-10-03T06:53:17Z</time>
      </trkpt>
      <trkpt lat="47.16172" lon="-1.65024">
        <ele>28.0155029</ele>
        <time>2010-10-03T06:53:28Z</time>
      </trkpt>
      <trkpt lat="47.16219" lon="-1.6501">
        <ele>30.4188232</ele>
        <time>2010-10-03T06:53:39Z</time>
      </trkpt>
      <trkpt lat="47.16267" lon="-1.64994">
        <ele>33.3028564</ele>
        <time>2010-10-03T06:53:50Z</time>
      </trkpt>
      <trkpt lat="47.16284" lon="-1.65051">
        <ele>34.2641602</ele>
        <time>2010-10-03T06:54:00Z</time>
      </trkpt>
      <trkpt lat="47.16289" lon="-1.65122">
        <ele>33.7834473</ele>
        <time>2010-10-03T06:54:11Z</time>
      </trkpt>
      <trkpt lat="47.16291" lon="-1.65192">
        <ele>34.2641602</ele>
        <time>2010-10-03T06:54:22Z</time>
      </trkpt>
      <trkpt lat="47.16292" lon="-1.65262">
        <ele>33.3028564</ele>
        <time>2010-10-03T06:54:34Z</time>
      </trkpt>
      <trkpt lat="47.16297" lon="-1.65332">
        <ele>33.7834473</ele>
        <time>2010-10-03T06:54:45Z</time>
      </trkpt>
      <trkpt lat="47.1632" lon="-1.65393">
        <ele>33.3028564</ele>
        <time>2010-10-03T06:54:55Z</time>
      </trkpt>
      <trkpt lat="47.16347" lon="-1.65452">
        <ele>33.3028564</ele>
        <time>2010-10-03T06:55:05Z</time>
      </trkpt>
      <trkpt lat="47.16377" lon="-1.65507">
        <ele>33.7834473</ele>
        <time>2010-10-03T06:55:16Z</time>
      </trkpt>
      <trkpt lat="47.16401" lon="-1.6557">
        <ele>35.7060547</ele>
        <time>2010-10-03T06:55:27Z</time>
      </trkpt>
      <trkpt lat="47.16442" lon="-1.65606">
        <ele>39.5512695</ele>
        <time>2010-10-03T06:55:37Z</time>
      </trkpt>
      <trkpt lat="47.16426" lon="-1.65651">
        <ele>40.5128174</ele>
        <time>2010-10-03T06:55:48Z</time>
      </trkpt>
      <trkpt lat="47.16384" lon="-1.65684">
        <ele>39.0706787</ele>
        <time>2010-10-03T06:55:58Z</time>
      </trkpt>
      <trkpt lat="47.16337" lon="-1.65704">
        <ele>38.5900879</ele>
        <time>2010-10-03T06:56:08Z</time>
      </trkpt>
      <trkpt lat="47.16291" lon="-1.65728">
        <ele>36.1867676</ele>
        <time>2010-10-03T06:56:18Z</time>
      </trkpt>
      <trkpt lat="47.16244" lon="-1.65753">
        <ele>33.3028564</ele>
        <time>2010-10-03T06:56:28Z</time>
      </trkpt>
      <trkpt lat="47.16198" lon="-1.65776">
        <ele>32.3415527</ele>
        <time>2010-10-03T06:56:38Z</time>
      </trkpt>
      <trkpt lat="47.16153" lon="-1.65796">
        <ele>31.380127</ele>
        <time>2010-10-03T06:56:47Z</time>
      </trkpt>
      <trkpt lat="47.16109" lon="-1.65814">
        <ele>30.8995361</ele>
        <time>2010-10-03T06:56:56Z</time>
      </trkpt>
      <trkpt lat="47.16064" lon="-1.65826">
        <ele>31.8607178</ele>
        <time>2010-10-03T06:57:05Z</time>
      </trkpt>
      <trkpt lat="47.16015" lon="-1.65839">
        <ele>30.8995361</ele>
        <time>2010-10-03T06:57:15Z</time>
      </trkpt>
      <trkpt lat="47.16008" lon="-1.65904">
        <ele>32.3415527</ele>
        <time>2010-10-03T06:57:25Z</time>
      </trkpt>
      <trkpt lat="47.16013" lon="-1.6597">
        <ele>32.3415527</ele>
        <time>2010-10-03T06:57:34Z</time>
      </trkpt>
      <trkpt lat="47.16022" lon="-1.66035">
        <ele>31.8607178</ele>
        <time>2010-10-03T06:57:43Z</time>
      </trkpt>
      <trkpt lat="47.16031" lon="-1.66099">
        <ele>31.380127</ele>
        <time>2010-10-03T06:57:52Z</time>
      </trkpt>
      <trkpt lat="47.16041" lon="-1.66168">
        <ele>31.380127</ele>
        <time>2010-10-03T06:58:02Z</time>
      </trkpt>
      <trkpt lat="47.16051" lon="-1.66235">
        <ele>30.8995361</ele>
        <time>2010-10-03T06:58:11Z</time>
      </trkpt>
      <trkpt lat="47.16061" lon="-1.66308">
        <ele>30.4188232</ele>
        <time>2010-10-03T06:58:21Z</time>
      </trkpt>
      <trkpt lat="47.16067" lon="-1.66373">
        <ele>29.4575195</ele>
        <time>2010-10-03T06:58:30Z</time>
      </trkpt>
      <trkpt lat="47.16072" lon="-1.66441">
        <ele>30.4188232</ele>
        <time>2010-10-03T06:58:39Z</time>
      </trkpt>
      <trkpt lat="47.16072" lon="-1.66507">
        <ele>32.3415527</ele>
        <time>2010-10-03T06:58:50Z</time>
      </trkpt>
      <trkpt lat="47.16026" lon="-1.66509">
        <ele>32.8222656</ele>
        <time>2010-10-03T06:59:00Z</time>
      </trkpt>
      <trkpt lat="47.15978" lon="-1.66502">
        <ele>32.3415527</ele>
        <time>2010-10-03T06:59:10Z</time>
      </trkpt>
      <trkpt lat="47.15932" lon="-1.66502">
        <ele>32.3415527</ele>
        <time>2010-10-03T06:59:19Z</time>
      </trkpt>
      <trkpt lat="47.15884" lon="-1.66516">
        <ele>32.8222656</ele>
        <time>2010-10-03T06:59:28Z</time>
      </trkpt>
      <trkpt lat="47.15837" lon="-1.66533">
        <ele>32.3415527</ele>
        <time>2010-10-03T06:59:37Z</time>
      </trkpt>
      <trkpt lat="47.15791" lon="-1.66541">
        <ele>32.3415527</ele>
        <time>2010-10-03T06:59:46Z</time>
      </trkpt>
      <trkpt lat="47.1575" lon="-1.66557">
        <ele>32.3415527</ele>
        <time>2010-10-03T06:59:57Z</time>
      </trkpt>
      <trkpt lat="47.15747" lon="-1.66622">
        <ele>32.3415527</ele>
        <time>2010-10-03T07:00:07Z</time>
      </trkpt>
      <trkpt lat="47.15749" lon="-1.66694">
        <ele>31.8607178</ele>
        <time>2010-10-03T07:00:18Z</time>
      </trkpt>
      <trkpt lat="47.1573" lon="-1.66755">
        <ele>31.8607178</ele>
        <time>2010-10-03T07:00:29Z</time>
      </trkpt>
      <trkpt lat="47.1573" lon="-1.66827">
        <ele>31.8607178</ele>
        <time>2010-10-03T07:00:38Z</time>
      </trkpt>
      <trkpt lat="47.1573" lon="-1.66894">
        <ele>31.8607178</ele>
        <time>2010-10-03T07:00:47Z</time>
      </trkpt>
      <trkpt lat="47.15729" lon="-1.66964">
        <ele>31.380127</ele>
        <time>2010-10-03T07:00:57Z</time>
      </trkpt>
      <trkpt lat="47.15737" lon="-1.67031">
        <ele>30.4188232</ele>
        <time>2010-10-03T07:01:11Z</time>
      </trkpt>
      <trkpt lat="47.15738" lon="-1.67098">
        <ele>30.4188232</ele>
        <time>2010-10-03T07:01:21Z</time>
      </trkpt>
      <trkpt lat="47.15737" lon="-1.67166">
        <ele>30.4188232</ele>
        <time>2010-10-03T07:01:31Z</time>
      </trkpt>
      <trkpt lat="47.15692" lon="-1.67183">
        <ele>31.380127</ele>
        <time>2010-10-03T07:01:42Z</time>
      </trkpt>
      <trkpt lat="47.15646" lon="-1.67195">
        <ele>32.3415527</ele>
        <time>2010-10-03T07:01:54Z</time>
      </trkpt>
      <trkpt lat="47.156" lon="-1.67207">
        <ele>32.3415527</ele>
        <time>2010-10-03T07:02:05Z</time>
      </trkpt>
      <trkpt lat="47.15553" lon="-1.67221">
        <ele>31.8607178</ele>
        <time>2010-10-03T07:02:18Z</time>
      </trkpt>
      <trkpt lat="47.15507" lon="-1.67232">
        <ele>32.3415527</ele>
        <time>2010-10-03T07:02:29Z</time>
      </trkpt>
      <trkpt lat="47.15462" lon="-1.67242">
        <ele>32.3415527</ele>
        <time>2010-10-03T07:02:39Z</time>
      </trkpt>
      <trkpt lat="47.15413" lon="-1.67252">
        <ele>33.7834473</ele>
        <time>2010-10-03T07:02:50Z</time>
      </trkpt>
      <trkpt lat="47.15366" lon="-1.67263">
        <ele>35.2254639</ele>
        <time>2010-10-03T07:03:00Z</time>
      </trkpt>
      <trkpt lat="47.1532" lon="-1.67271">
        <ele>37.1480713</ele>
        <time>2010-10-03T07:03:10Z</time>
      </trkpt>
      <trkpt lat="47.15279" lon="-1.67238">
        <ele>37.1480713</ele>
        <time>2010-10-03T07:03:20Z</time>
      </trkpt>
      <trkpt lat="47.15237" lon="-1.67207">
        <ele>36.1867676</ele>
        <time>2010-10-03T07:03:30Z</time>
      </trkpt>
      <trkpt lat="47.15193" lon="-1.67171">
        <ele>33.7834473</ele>
        <time>2010-10-03T07:03:40Z</time>
      </trkpt>
      <trkpt lat="47.15144" lon="-1.67166">
        <ele>32.3415527</ele>
        <time>2010-10-03T07:03:50Z</time>
      </trkpt>
      <trkpt lat="47.15117" lon="-1.67114">
        <ele>29.9381104</ele>
        <time>2010-10-03T07:03:58Z</time>
      </trkpt>
      <trkpt lat="47.15094" lon="-1.67056">
        <ele>28.9769287</ele>
        <time>2010-10-03T07:04:06Z</time>
      </trkpt>
      <trkpt lat="47.15069" lon="-1.66997">
        <ele>27.5349121</ele>
        <time>2010-10-03T07:04:14Z</time>
      </trkpt>
      <trkpt lat="47.15032" lon="-1.66967">
        <ele>28.4962158</ele>
        <time>2010-10-03T07:04:23Z</time>
      </trkpt>
      <trkpt lat="47.14988" lon="-1.66951">
        <ele>27.5349121</ele>
        <time>2010-10-03T07:04:32Z</time>
      </trkpt>
      <trkpt lat="47.14942" lon="-1.66927">
        <ele>27.5349121</ele>
        <time>2010-10-03T07:04:43Z</time>
      </trkpt>
      <trkpt lat="47.14899" lon="-1.66902">
        <ele>26.0928955</ele>
        <time>2010-10-03T07:04:54Z</time>
      </trkpt>
      <trkpt lat="47.1488" lon="-1.66831">
        <ele>26.0928955</ele>
        <time>2010-10-03T07:05:05Z</time>
      </trkpt>
      <trkpt lat="47.14859" lon="-1.66767">
        <ele>27.5349121</ele>
        <time>2010-10-03T07:05:17Z</time>
      </trkpt>
      <trkpt lat="47.14846" lon="-1.66703">
        <ele>28.4962158</ele>
        <time>2010-10-03T07:05:29Z</time>
      </trkpt>
      <trkpt lat="47.14833" lon="-1.66635">
        <ele>27.5349121</ele>
        <time>2010-10-03T07:05:39Z</time>
      </trkpt>
      <trkpt lat="47.14837" lon="-1.66569">
        <ele>28.9769287</ele>
        <time>2010-10-03T07:05:53Z</time>
      </trkpt>
      <trkpt lat="47.14832" lon="-1.66503">
        <ele>29.4575195</ele>
        <time>2010-10-03T07:06:06Z</time>
      </trkpt>
      <trkpt lat="47.14843" lon="-1.66438">
        <ele>29.4575195</ele>
        <time>2010-10-03T07:06:18Z</time>
      </trkpt>
      <trkpt lat="47.14851" lon="-1.6637">
        <ele>30.4188232</ele>
        <time>2010-10-03T07:06:34Z</time>
      </trkpt>
      <trkpt lat="47.14863" lon="-1.66304">
        <ele>28.9769287</ele>
        <time>2010-10-03T07:06:48Z</time>
      </trkpt>
      <trkpt lat="47.14876" lon="-1.6623">
        <ele>29.4575195</ele>
        <time>2010-10-03T07:07:00Z</time>
      </trkpt>
      <trkpt lat="47.14883" lon="-1.66162">
        <ele>29.9381104</ele>
        <time>2010-10-03T07:07:10Z</time>
      </trkpt>
      <trkpt lat="47.14877" lon="-1.66096">
        <ele>30.4188232</ele>
        <time>2010-10-03T07:07:19Z</time>
      </trkpt>
      <trkpt lat="47.14879" lon="-1.66029">
        <ele>30.4188232</ele>
        <time>2010-10-03T07:07:28Z</time>
      </trkpt>
      <trkpt lat="47.14881" lon="-1.65962">
        <ele>29.9381104</ele>
        <time>2010-10-03T07:07:37Z</time>
      </trkpt>
      <trkpt lat="47.14878" lon="-1.65892">
        <ele>28.4962158</ele>
        <time>2010-10-03T07:07:46Z</time>
      </trkpt>
      <trkpt lat="47.14873" lon="-1.65825">
        <ele>27.0543213</ele>
        <time>2010-10-03T07:07:55Z</time>
      </trkpt>
      <trkpt lat="47.14836" lon="-1.65802">
        <ele>26.0928955</ele>
        <time>2010-10-03T07:08:05Z</time>
      </trkpt>
      <trkpt lat="47.14791" lon="-1.65811">
        <ele>24.651001</ele>
        <time>2010-10-03T07:08:14Z</time>
      </trkpt>
      <trkpt lat="47.14745" lon="-1.6582">
        <ele>22.2475586</ele>
        <time>2010-10-03T07:08:23Z</time>
      </trkpt>
      <trkpt lat="47.1473" lon="-1.65758">
        <ele>19.8443604</ele>
        <time>2010-10-03T07:08:33Z</time>
      </trkpt>
      <trkpt lat="47.14687" lon="-1.65772">
        <ele>20.3249512</ele>
        <time>2010-10-03T07:08:43Z</time>
      </trkpt>
      <trkpt lat="47.14637" lon="-1.65769">
        <ele>20.3249512</ele>
        <time>2010-10-03T07:08:53Z</time>
      </trkpt>
      <trkpt lat="47.14592" lon="-1.65757">
        <ele>19.3637695</ele>
        <time>2010-10-03T07:09:02Z</time>
      </trkpt>
      <trkpt lat="47.14584" lon="-1.65697">
        <ele>19.8443604</ele>
        <time>2010-10-03T07:09:12Z</time>
      </trkpt>
      <trkpt lat="47.14585" lon="-1.6563">
        <ele>21.286377</ele>
        <time>2010-10-03T07:09:22Z</time>
      </trkpt>
      <trkpt lat="47.14589" lon="-1.65559">
        <ele>21.286377</ele>
        <time>2010-10-03T07:09:32Z</time>
      </trkpt>
      <trkpt lat="47.14576" lon="-1.65501">
        <ele>20.3249512</ele>
        <time>2010-10-03T07:09:42Z</time>
      </trkpt>
      <trkpt lat="47.14534" lon="-1.65508">
        <ele>17.4411621</ele>
        <time>2010-10-03T07:09:51Z</time>
      </trkpt>
      <trkpt lat="47.14501" lon="-1.65493">
        <ele>16.4797363</ele>
        <time>2010-10-03T07:10:07Z</time>
      </trkpt>
      <trkpt lat="47.14517" lon="-1.65428">
        <ele>17.9217529</ele>
        <time>2010-10-03T07:10:19Z</time>
      </trkpt>
      <trkpt lat="47.14513" lon="-1.65378">
        <ele>18.4023438</ele>
        <time>2010-10-03T07:10:30Z</time>
      </trkpt>
      <trkpt lat="47.14468" lon="-1.65401">
        <ele>20.8056641</ele>
        <time>2010-10-03T07:10:41Z</time>
      </trkpt>
      <trkpt lat="47.14425" lon="-1.65425">
        <ele>21.7669678</ele>
        <time>2010-10-03T07:10:51Z</time>
      </trkpt>
      <trkpt lat="47.14379" lon="-1.65429">
        <ele>20.8056641</ele>
        <time>2010-10-03T07:11:01Z</time>
      </trkpt>
      <trkpt lat="47.14337" lon="-1.65398">
        <ele>20.8056641</ele>
        <time>2010-10-03T07:11:11Z</time>
      </trkpt>
      <trkpt lat="47.14293" lon="-1.65371">
        <ele>21.286377</ele>
        <time>2010-10-03T07:11:21Z</time>
      </trkpt>
      <trkpt lat="47.14245" lon="-1.65348">
        <ele>19.8443604</ele>
        <time>2010-10-03T07:11:31Z</time>
      </trkpt>
      <trkpt lat="47.14201" lon="-1.65326">
        <ele>19.3637695</ele>
        <time>2010-10-03T07:11:40Z</time>
      </trkpt>
      <trkpt lat="47.14157" lon="-1.6531">
        <ele>18.4023438</ele>
        <time>2010-10-03T07:11:49Z</time>
      </trkpt>
      <trkpt lat="47.14112" lon="-1.65288">
        <ele>18.4023438</ele>
        <time>2010-10-03T07:11:58Z</time>
      </trkpt>
      <trkpt lat="47.14068" lon="-1.65275">
        <ele>17.4411621</ele>
        <time>2010-10-03T07:12:07Z</time>
      </trkpt>
      <trkpt lat="47.14019" lon="-1.65265">
        <ele>17.4411621</ele>
        <time>2010-10-03T07:12:17Z</time>
      </trkpt>
      <trkpt lat="47.13974" lon="-1.6525">
        <ele>15.9990234</ele>
        <time>2010-10-03T07:12:26Z</time>
      </trkpt>
      <trkpt lat="47.1393" lon="-1.65219">
        <ele>15.0377197</ele>
        <time>2010-10-03T07:12:35Z</time>
      </trkpt>
      <trkpt lat="47.1389" lon="-1.65195">
        <ele>14.076416</ele>
        <time>2010-10-03T07:12:43Z</time>
      </trkpt>
      <trkpt lat="47.13848" lon="-1.65215">
        <ele>14.076416</ele>
        <time>2010-10-03T07:12:53Z</time>
      </trkpt>
      <trkpt lat="47.13811" lon="-1.6526">
        <ele>14.5570068</ele>
        <time>2010-10-03T07:13:02Z</time>
      </trkpt>
      <trkpt lat="47.13778" lon="-1.65308">
        <ele>16.4797363</ele>
        <time>2010-10-03T07:13:11Z</time>
      </trkpt>
      <trkpt lat="47.13744" lon="-1.65357">
        <ele>15.0377197</ele>
        <time>2010-10-03T07:13:20Z</time>
      </trkpt>
      <trkpt lat="47.13715" lon="-1.65416">
        <ele>14.5570068</ele>
        <time>2010-10-03T07:13:29Z</time>
      </trkpt>
      <trkpt lat="47.13689" lon="-1.65476">
        <ele>13.5958252</ele>
        <time>2010-10-03T07:13:38Z</time>
      </trkpt>
      <trkpt lat="47.13657" lon="-1.65493">
        <ele>14.5570068</ele>
        <time>2010-10-03T07:13:51Z</time>
      </trkpt>
      <trkpt lat="47.13625" lon="-1.65438">
        <ele>13.5958252</ele>
        <time>2010-10-03T07:14:02Z</time>
      </trkpt>
      <trkpt lat="47.13593" lon="-1.65383">
        <ele>13.1151123</ele>
        <time>2010-10-03T07:14:12Z</time>
      </trkpt>
      <trkpt lat="47.13555" lon="-1.65335">
        <ele>14.076416</ele>
        <time>2010-10-03T07:14:22Z</time>
      </trkpt>
      <trkpt lat="47.13511" lon="-1.65324">
        <ele>13.5958252</ele>
        <time>2010-10-03T07:14:32Z</time>
      </trkpt>
      <trkpt lat="47.13487" lon="-1.65382">
        <ele>13.1151123</ele>
        <time>2010-10-03T07:14:41Z</time>
      </trkpt>
      <trkpt lat="47.13465" lon="-1.65446">
        <ele>13.5958252</ele>
        <time>2010-10-03T07:14:51Z</time>
      </trkpt>
      <trkpt lat="47.13434" lon="-1.65503">
        <ele>12.6343994</ele>
        <time>2010-10-03T07:15:01Z</time>
      </trkpt>
      <trkpt lat="47.13402" lon="-1.65555">
        <ele>12.6343994</ele>
        <time>2010-10-03T07:15:11Z</time>
      </trkpt>
      <trkpt lat="47.13367" lon="-1.65608">
        <ele>11.6732178</ele>
        <time>2010-10-03T07:15:21Z</time>
      </trkpt>
      <trkpt lat="47.13331" lon="-1.65649">
        <ele>11.6732178</ele>
        <time>2010-10-03T07:15:30Z</time>
      </trkpt>
      <trkpt lat="47.13293" lon="-1.65687">
        <ele>12.1538086</ele>
        <time>2010-10-03T07:15:39Z</time>
      </trkpt>
      <trkpt lat="47.13252" lon="-1.65718">
        <ele>12.1538086</ele>
        <time>2010-10-03T07:15:48Z</time>
      </trkpt>
      <trkpt lat="47.13209" lon="-1.65745">
        <ele>12.1538086</ele>
        <time>2010-10-03T07:15:57Z</time>
      </trkpt>
      <trkpt lat="47.13163" lon="-1.65771">
        <ele>10.711792</ele>
        <time>2010-10-03T07:16:06Z</time>
      </trkpt>
      <trkpt lat="47.13131" lon="-1.65825">
        <ele>10.2312012</ele>
        <time>2010-10-03T07:16:15Z</time>
      </trkpt>
      <trkpt lat="47.13102" lon="-1.65879">
        <ele>10.2312012</ele>
        <time>2010-10-03T07:16:24Z</time>
      </trkpt>
      <trkpt lat="47.1307" lon="-1.65929">
        <ele>11.1925049</ele>
        <time>2010-10-03T07:16:36Z</time>
      </trkpt>
      <trkpt lat="47.13074" lon="-1.65997">
        <ele>12.1538086</ele>
        <time>2010-10-03T07:16:47Z</time>
      </trkpt>
      <trkpt lat="47.1308" lon="-1.66065">
        <ele>11.6732178</ele>
        <time>2010-10-03T07:16:57Z</time>
      </trkpt>
      <trkpt lat="47.13097" lon="-1.66129">
        <ele>11.6732178</ele>
        <time>2010-10-03T07:17:07Z</time>
      </trkpt>
      <trkpt lat="47.13119" lon="-1.66187">
        <ele>11.1925049</ele>
        <time>2010-10-03T07:17:16Z</time>
      </trkpt>
      <trkpt lat="47.13106" lon="-1.6623">
        <ele>11.1925049</ele>
        <time>2010-10-03T07:17:26Z</time>
      </trkpt>
      <trkpt lat="47.1306" lon="-1.66249">
        <ele>10.711792</ele>
        <time>2010-10-03T07:17:36Z</time>
      </trkpt>
      <trkpt lat="47.13012" lon="-1.66268">
        <ele>10.2312012</ele>
        <time>2010-10-03T07:17:46Z</time>
      </trkpt>
      <trkpt lat="47.12973" lon="-1.663">
        <ele>10.711792</ele>
        <time>2010-10-03T07:17:55Z</time>
      </trkpt>
      <trkpt lat="47.12936" lon="-1.66346">
        <ele>9.2698975</ele>
        <time>2010-10-03T07:18:04Z</time>
      </trkpt>
      <trkpt lat="47.12895" lon="-1.66383">
        <ele>8.7891846</ele>
        <time>2010-10-03T07:18:13Z</time>
      </trkpt>
      <trkpt lat="47.12856" lon="-1.66421">
        <ele>9.2698975</ele>
        <time>2010-10-03T07:18:22Z</time>
      </trkpt>
      <trkpt lat="47.12813" lon="-1.6645">
        <ele>8.3085938</ele>
        <time>2010-10-03T07:18:31Z</time>
      </trkpt>
      <trkpt lat="47.12773" lon="-1.66487">
        <ele>8.3085938</ele>
        <time>2010-10-03T07:18:40Z</time>
      </trkpt>
      <trkpt lat="47.12734" lon="-1.66521">
        <ele>6.8664551</ele>
        <time>2010-10-03T07:18:49Z</time>
      </trkpt>
      <trkpt lat="47.12714" lon="-1.66476">
        <ele>5.9052734</ele>
        <time>2010-10-03T07:19:00Z</time>
      </trkpt>
      <trkpt lat="47.12706" lon="-1.66405">
        <ele>5.9052734</ele>
        <time>2010-10-03T07:19:10Z</time>
      </trkpt>
      <trkpt lat="47.12697" lon="-1.66334">
        <ele>4.4632568</ele>
        <time>2010-10-03T07:19:20Z</time>
      </trkpt>
      <trkpt lat="47.12693" lon="-1.66265">
        <ele>1.0986328</ele>
        <time>2010-10-03T07:19:30Z</time>
      </trkpt>
      <trkpt lat="47.12698" lon="-1.66191">
        <ele>-6.5919189</ele>
        <time>2010-10-03T07:19:41Z</time>
      </trkpt>
      <trkpt lat="47.12721" lon="-1.66123">
        <ele>-15.7243652</ele>
        <time>2010-10-03T07:19:53Z</time>
      </trkpt>
      <trkpt lat="47.12712" lon="-1.66044">
        <ele>-21.9730225</ele>
        <time>2010-10-03T07:20:03Z</time>
      </trkpt>
      <trkpt lat="47.12695" lon="-1.65967">
        <ele>-23.8956299</ele>
        <time>2010-10-03T07:20:13Z</time>
      </trkpt>
      <trkpt lat="47.12686" lon="-1.65889">
        <ele>-27.2602539</ele>
        <time>2010-10-03T07:20:23Z</time>
      </trkpt>
      <trkpt lat="47.12668" lon="-1.6582">
        <ele>-28.2215576</ele>
        <time>2010-10-03T07:20:32Z</time>
      </trkpt>
      <trkpt lat="47.12641" lon="-1.65754">
        <ele>-27.2602539</ele>
        <time>2010-10-03T07:20:42Z</time>
      </trkpt>
      <trkpt lat="47.12605" lon="-1.65694">
        <ele>-22.4536133</ele>
        <time>2010-10-03T07:20:52Z</time>
      </trkpt>
      <trkpt lat="47.12562" lon="-1.65641">
        <ele>-17.1663818</ele>
        <time>2010-10-03T07:21:02Z</time>
      </trkpt>
      <trkpt lat="47.12507" lon="-1.65616">
        <ele>-5.1499023</ele>
        <time>2010-10-03T07:21:12Z</time>
      </trkpt>
      <trkpt lat="47.12458" lon="-1.65605">
        <ele>-1.3046875</ele>
        <time>2010-10-03T07:21:21Z</time>
      </trkpt>
      <trkpt lat="47.12411" lon="-1.65594">
        <ele>1.5793457</ele>
        <time>2010-10-03T07:21:30Z</time>
      </trkpt>
      <trkpt lat="47.12368" lon="-1.65561">
        <ele>2.0600586</ele>
        <time>2010-10-03T07:21:39Z</time>
      </trkpt>
      <trkpt lat="47.12335" lon="-1.65508">
        <ele>3.5019531</ele>
        <time>2010-10-03T07:21:48Z</time>
      </trkpt>
      <trkpt lat="47.12303" lon="-1.65457">
        <ele>3.982666</ele>
        <time>2010-10-03T07:21:57Z</time>
      </trkpt>
      <trkpt lat="47.12271" lon="-1.65405">
        <ele>4.4632568</ele>
        <time>2010-10-03T07:22:06Z</time>
      </trkpt>
      <trkpt lat="47.12248" lon="-1.65346">
        <ele>5.4245605</ele>
        <time>2010-10-03T07:22:15Z</time>
      </trkpt>
      <trkpt lat="47.12226" lon="-1.65294">
        <ele>5.4245605</ele>
        <time>2010-10-03T07:22:26Z</time>
      </trkpt>
      <trkpt lat="47.12189" lon="-1.65337">
        <ele>3.0212402</ele>
        <time>2010-10-03T07:22:36Z</time>
      </trkpt>
      <trkpt lat="47.12152" lon="-1.65384">
        <ele>1.5793457</ele>
        <time>2010-10-03T07:22:46Z</time>
      </trkpt>
      <trkpt lat="47.12115" lon="-1.65432">
        <ele>2.0600586</ele>
        <time>2010-10-03T07:22:56Z</time>
      </trkpt>
      <trkpt lat="47.12079" lon="-1.65483">
        <ele>6.3858643</ele>
        <time>2010-10-03T07:23:06Z</time>
      </trkpt>
      <trkpt lat="47.12033" lon="-1.65528">
        <ele>11.1925049</ele>
        <time>2010-10-03T07:23:17Z</time>
      </trkpt>
      <trkpt lat="47.11991" lon="-1.65568">
        <ele>8.7891846</ele>
        <time>2010-10-03T07:23:33Z</time>
      </trkpt>
      <trkpt lat="47.11983" lon="-1.65573">
        <ele>5.9052734</ele>
        <time>2010-10-03T07:24:24Z</time>
      </trkpt>
      <trkpt lat="47.1202" lon="-1.65533">
        <ele>6.3858643</ele>
        <time>2010-10-03T07:24:41Z</time>
      </trkpt>
      <trkpt lat="47.12059" lon="-1.65498">
        <ele>4.9438477</ele>
        <time>2010-10-03T07:24:56Z</time>
      </trkpt>
      <trkpt lat="47.12095" lon="-1.65451">
        <ele>1.0986328</ele>
        <time>2010-10-03T07:25:09Z</time>
      </trkpt>
      <trkpt lat="47.12132" lon="-1.65403">
        <ele>2.0600586</ele>
        <time>2010-10-03T07:25:22Z</time>
      </trkpt>
      <trkpt lat="47.12172" lon="-1.6535">
        <ele>0.618042</ele>
        <time>2010-10-03T07:25:34Z</time>
      </trkpt>
      <trkpt lat="47.12209" lon="-1.65301">
        <ele>-1.7852783</ele>
        <time>2010-10-03T07:25:45Z</time>
      </trkpt>
      <trkpt lat="47.12236" lon="-1.65239">
        <ele>0.1374512</ele>
        <time>2010-10-03T07:25:58Z</time>
      </trkpt>
      <trkpt lat="47.12242" lon="-1.65172">
        <ele>2.0600586</ele>
        <time>2010-10-03T07:26:09Z</time>
      </trkpt>
      <trkpt lat="47.12254" lon="-1.65103">
        <ele>2.0600586</ele>
        <time>2010-10-03T07:26:21Z</time>
      </trkpt>
      <trkpt lat="47.12266" lon="-1.65035">
        <ele>0.1374512</ele>
        <time>2010-10-03T07:26:32Z</time>
      </trkpt>
      <trkpt lat="47.12276" lon="-1.64964">
        <ele>-0.3433838</ele>
        <time>2010-10-03T07:26:42Z</time>
      </trkpt>
      <trkpt lat="47.12284" lon="-1.64892">
        <ele>2.0600586</ele>
        <time>2010-10-03T07:26:52Z</time>
      </trkpt>
      <trkpt lat="47.12291" lon="-1.64826">
        <ele>3.0212402</ele>
        <time>2010-10-03T07:27:01Z</time>
      </trkpt>
      <trkpt lat="47.12295" lon="-1.64758">
        <ele>3.982666</ele>
        <time>2010-10-03T07:27:10Z</time>
      </trkpt>
      <trkpt lat="47.12298" lon="-1.64689">
        <ele>5.4245605</ele>
        <time>2010-10-03T07:27:20Z</time>
      </trkpt>
      <trkpt lat="47.12298" lon="-1.64613">
        <ele>6.3858643</ele>
        <time>2010-10-03T07:27:30Z</time>
      </trkpt>
      <trkpt lat="47.12275" lon="-1.64547">
        <ele>4.9438477</ele>
        <time>2010-10-03T07:27:39Z</time>
      </trkpt>
      <trkpt lat="47.12232" lon="-1.64554">
        <ele>5.4245605</ele>
        <time>2010-10-03T07:27:50Z</time>
      </trkpt>
      <trkpt lat="47.12186" lon="-1.64585">
        <ele>7.8278809</ele>
        <time>2010-10-03T07:28:01Z</time>
      </trkpt>
      <trkpt lat="47.12141" lon="-1.64615">
        <ele>8.7891846</ele>
        <time>2010-10-03T07:28:11Z</time>
      </trkpt>
      <trkpt lat="47.1209" lon="-1.64613">
        <ele>10.711792</ele>
        <time>2010-10-03T07:35:34Z</time>
      </trkpt>
      <trkpt lat="47.12041" lon="-1.64584">
        <ele>10.2312012</ele>
        <time>2010-10-03T07:35:48Z</time>
      </trkpt>
      <trkpt lat="47.11991" lon="-1.64553">
        <ele>10.2312012</ele>
        <time>2010-10-03T07:35:59Z</time>
      </trkpt>
      <trkpt lat="47.11947" lon="-1.64524">
        <ele>11.1925049</ele>
        <time>2010-10-03T07:36:09Z</time>
      </trkpt>
      <trkpt lat="47.11898" lon="-1.64495">
        <ele>8.3085938</ele>
        <time>2010-10-03T07:36:20Z</time>
      </trkpt>
      <trkpt lat="47.1191" lon="-1.64431">
        <ele>8.7891846</ele>
        <time>2010-10-03T07:36:32Z</time>
      </trkpt>
      <trkpt lat="47.1193" lon="-1.64371">
        <ele>9.7506104</ele>
        <time>2010-10-03T07:36:43Z</time>
      </trkpt>
      <trkpt lat="47.11952" lon="-1.64307">
        <ele>8.3085938</ele>
        <time>2010-10-03T07:36:54Z</time>
      </trkpt>
      <trkpt lat="47.11953" lon="-1.64236">
        <ele>8.3085938</ele>
        <time>2010-10-03T07:37:06Z</time>
      </trkpt>
      <trkpt lat="47.11949" lon="-1.64167">
        <ele>8.3085938</ele>
        <time>2010-10-03T07:37:16Z</time>
      </trkpt>
      <trkpt lat="47.11951" lon="-1.64097">
        <ele>8.3085938</ele>
        <time>2010-10-03T07:37:26Z</time>
      </trkpt>
      <trkpt lat="47.11958" lon="-1.64025">
        <ele>8.3085938</ele>
        <time>2010-10-03T07:37:36Z</time>
      </trkpt>
      <trkpt lat="47.11964" lon="-1.63959">
        <ele>7.8278809</ele>
        <time>2010-10-03T07:37:45Z</time>
      </trkpt>
      <trkpt lat="47.1197" lon="-1.63891">
        <ele>7.347168</ele>
        <time>2010-10-03T07:37:54Z</time>
      </trkpt>
      <trkpt lat="47.11978" lon="-1.63821">
        <ele>7.8278809</ele>
        <time>2010-10-03T07:38:03Z</time>
      </trkpt>
      <trkpt lat="47.11995" lon="-1.63758">
        <ele>7.8278809</ele>
        <time>2010-10-03T07:38:12Z</time>
      </trkpt>
      <trkpt lat="47.1202" lon="-1.63695">
        <ele>7.8278809</ele>
        <time>2010-10-03T07:38:22Z</time>
      </trkpt>
      <trkpt lat="47.12044" lon="-1.63638">
        <ele>7.8278809</ele>
        <time>2010-10-03T07:38:31Z</time>
      </trkpt>
      <trkpt lat="47.12079" lon="-1.63588">
        <ele>7.347168</ele>
        <time>2010-10-03T07:38:41Z</time>
      </trkpt>
      <trkpt lat="47.12118" lon="-1.63543">
        <ele>6.3858643</ele>
        <time>2010-10-03T07:38:51Z</time>
      </trkpt>
      <trkpt lat="47.12156" lon="-1.635">
        <ele>4.4632568</ele>
        <time>2010-10-03T07:39:01Z</time>
      </trkpt>
      <trkpt lat="47.12194" lon="-1.6346">
        <ele>4.4632568</ele>
        <time>2010-10-03T07:39:11Z</time>
      </trkpt>
      <trkpt lat="47.12232" lon="-1.63419">
        <ele>3.982666</ele>
        <time>2010-10-03T07:39:22Z</time>
      </trkpt>
      <trkpt lat="47.12269" lon="-1.63379">
        <ele>3.982666</ele>
        <time>2010-10-03T07:39:33Z</time>
      </trkpt>
      <trkpt lat="47.1226" lon="-1.63319">
        <ele>4.9438477</ele>
        <time>2010-10-03T07:39:45Z</time>
      </trkpt>
      <trkpt lat="47.12241" lon="-1.63255">
        <ele>5.9052734</ele>
        <time>2010-10-03T07:39:58Z</time>
      </trkpt>
      <trkpt lat="47.12218" lon="-1.63197">
        <ele>5.9052734</ele>
        <time>2010-10-03T07:40:08Z</time>
      </trkpt>
      <trkpt lat="47.12235" lon="-1.6314">
        <ele>6.3858643</ele>
        <time>2010-10-03T07:40:18Z</time>
      </trkpt>
      <trkpt lat="47.1227" lon="-1.63093">
        <ele>7.347168</ele>
        <time>2010-10-03T07:40:28Z</time>
      </trkpt>
      <trkpt lat="47.12294" lon="-1.63034">
        <ele>6.8664551</ele>
        <time>2010-10-03T07:40:39Z</time>
      </trkpt>
      <trkpt lat="47.12302" lon="-1.62965">
        <ele>7.347168</ele>
        <time>2010-10-03T07:40:51Z</time>
      </trkpt>
      <trkpt lat="47.12323" lon="-1.62901">
        <ele>7.347168</ele>
        <time>2010-10-03T07:41:02Z</time>
      </trkpt>
      <trkpt lat="47.12308" lon="-1.62843">
        <ele>6.8664551</ele>
        <time>2010-10-03T07:41:12Z</time>
      </trkpt>
      <trkpt lat="47.1228" lon="-1.62792">
        <ele>5.4245605</ele>
        <time>2010-10-03T07:41:21Z</time>
      </trkpt>
      <trkpt lat="47.12258" lon="-1.6273">
        <ele>3.982666</ele>
        <time>2010-10-03T07:41:33Z</time>
      </trkpt>
      <trkpt lat="47.12221" lon="-1.62673">
        <ele>4.4632568</ele>
        <time>2010-10-03T07:41:45Z</time>
      </trkpt>
      <trkpt lat="47.12185" lon="-1.62624">
        <ele>5.4245605</ele>
        <time>2010-10-03T07:41:56Z</time>
      </trkpt>
      <trkpt lat="47.12165" lon="-1.62562">
        <ele>6.3858643</ele>
        <time>2010-10-03T07:42:08Z</time>
      </trkpt>
      <trkpt lat="47.12152" lon="-1.6249">
        <ele>7.347168</ele>
        <time>2010-10-03T07:42:19Z</time>
      </trkpt>
      <trkpt lat="47.12137" lon="-1.62424">
        <ele>8.3085938</ele>
        <time>2010-10-03T07:42:29Z</time>
      </trkpt>
      <trkpt lat="47.12125" lon="-1.6236">
        <ele>9.2698975</ele>
        <time>2010-10-03T07:42:39Z</time>
      </trkpt>
      <trkpt lat="47.12113" lon="-1.62296">
        <ele>8.3085938</ele>
        <time>2010-10-03T07:42:49Z</time>
      </trkpt>
      <trkpt lat="47.12121" lon="-1.62243">
        <ele>8.3085938</ele>
        <time>2010-10-03T07:43:04Z</time>
      </trkpt>
      <trkpt lat="47.12152" lon="-1.62196">
        <ele>7.347168</ele>
        <time>2010-10-03T07:44:48Z</time>
      </trkpt>
      <trkpt lat="47.12169" lon="-1.62133">
        <ele>6.3858643</ele>
        <time>2010-10-03T07:45:02Z</time>
      </trkpt>
      <trkpt lat="47.12206" lon="-1.62089">
        <ele>7.8278809</ele>
        <time>2010-10-03T07:45:15Z</time>
      </trkpt>
      <trkpt lat="47.12243" lon="-1.6205">
        <ele>8.7891846</ele>
        <time>2010-10-03T07:45:26Z</time>
      </trkpt>
      <trkpt lat="47.12283" lon="-1.62008">
        <ele>8.7891846</ele>
        <time>2010-10-03T07:45:37Z</time>
      </trkpt>
      <trkpt lat="47.12323" lon="-1.61963">
        <ele>8.3085938</ele>
        <time>2010-10-03T07:45:48Z</time>
      </trkpt>
      <trkpt lat="47.12363" lon="-1.61919">
        <ele>6.3858643</ele>
        <time>2010-10-03T07:45:59Z</time>
      </trkpt>
      <trkpt lat="47.12401" lon="-1.61878">
        <ele>7.347168</ele>
        <time>2010-10-03T07:46:11Z</time>
      </trkpt>
      <trkpt lat="47.1243" lon="-1.61833">
        <ele>9.2698975</ele>
        <time>2010-10-03T07:46:24Z</time>
      </trkpt>
      <trkpt lat="47.12447" lon="-1.61771">
        <ele>9.2698975</ele>
        <time>2010-10-03T07:46:34Z</time>
      </trkpt>
      <trkpt lat="47.12464" lon="-1.61706">
        <ele>10.2312012</ele>
        <time>2010-10-03T07:46:44Z</time>
      </trkpt>
      <trkpt lat="47.12475" lon="-1.6164">
        <ele>10.2312012</ele>
        <time>2010-10-03T07:46:54Z</time>
      </trkpt>
      <trkpt lat="47.12472" lon="-1.61569">
        <ele>10.711792</ele>
        <time>2010-10-03T07:47:04Z</time>
      </trkpt>
      <trkpt lat="47.12464" lon="-1.61498">
        <ele>11.1925049</ele>
        <time>2010-10-03T07:47:14Z</time>
      </trkpt>
      <trkpt lat="47.12463" lon="-1.61427">
        <ele>10.711792</ele>
        <time>2010-10-03T07:47:25Z</time>
      </trkpt>
      <trkpt lat="47.12478" lon="-1.61369">
        <ele>11.6732178</ele>
        <time>2010-10-03T07:47:36Z</time>
      </trkpt>
      <trkpt lat="47.1252" lon="-1.61344">
        <ele>12.1538086</ele>
        <time>2010-10-03T07:47:46Z</time>
      </trkpt>
      <trkpt lat="47.12565" lon="-1.61318">
        <ele>12.1538086</ele>
        <time>2010-10-03T07:47:57Z</time>
      </trkpt>
      <trkpt lat="47.12609" lon="-1.61295">
        <ele>12.6343994</ele>
        <time>2010-10-03T07:48:07Z</time>
      </trkpt>
      <trkpt lat="47.12653" lon="-1.61273">
        <ele>13.5958252</ele>
        <time>2010-10-03T07:48:17Z</time>
      </trkpt>
      <trkpt lat="47.12695" lon="-1.61238">
        <ele>14.076416</ele>
        <time>2010-10-03T07:48:28Z</time>
      </trkpt>
      <trkpt lat="47.12735" lon="-1.61201">
        <ele>14.5570068</ele>
        <time>2010-10-03T07:48:38Z</time>
      </trkpt>
      <trkpt lat="47.12772" lon="-1.61159">
        <ele>13.5958252</ele>
        <time>2010-10-03T07:48:47Z</time>
      </trkpt>
      <trkpt lat="47.1281" lon="-1.6112">
        <ele>12.1538086</ele>
        <time>2010-10-03T07:48:57Z</time>
      </trkpt>
      <trkpt lat="47.12851" lon="-1.61076">
        <ele>11.1925049</ele>
        <time>2010-10-03T07:49:09Z</time>
      </trkpt>
      <trkpt lat="47.12894" lon="-1.61036">
        <ele>11.1925049</ele>
        <time>2010-10-03T07:49:21Z</time>
      </trkpt>
      <trkpt lat="47.12927" lon="-1.60977">
        <ele>12.6343994</ele>
        <time>2010-10-03T07:49:31Z</time>
      </trkpt>
      <trkpt lat="47.12949" lon="-1.60912">
        <ele>13.5958252</ele>
        <time>2010-10-03T07:49:41Z</time>
      </trkpt>
      <trkpt lat="47.1296" lon="-1.60845">
        <ele>14.5570068</ele>
        <time>2010-10-03T07:49:51Z</time>
      </trkpt>
      <trkpt lat="47.12966" lon="-1.60779">
        <ele>15.5184326</ele>
        <time>2010-10-03T07:50:01Z</time>
      </trkpt>
      <trkpt lat="47.12968" lon="-1.60707">
        <ele>16.4797363</ele>
        <time>2010-10-03T07:50:12Z</time>
      </trkpt>
      <trkpt lat="47.12924" lon="-1.60679">
        <ele>15.9990234</ele>
        <time>2010-10-03T07:50:23Z</time>
      </trkpt>
      <trkpt lat="47.1288" lon="-1.6066">
        <ele>15.5184326</ele>
        <time>2010-10-03T07:50:33Z</time>
      </trkpt>
      <trkpt lat="47.12835" lon="-1.6065">
        <ele>15.5184326</ele>
        <time>2010-10-03T07:50:43Z</time>
      </trkpt>
      <trkpt lat="47.12817" lon="-1.6062">
        <ele>15.9990234</ele>
        <time>2010-10-03T07:50:55Z</time>
      </trkpt>
      <trkpt lat="47.12847" lon="-1.60563">
        <ele>15.9990234</ele>
        <time>2010-10-03T07:51:06Z</time>
      </trkpt>
      <trkpt lat="47.12875" lon="-1.60508">
        <ele>15.9990234</ele>
        <time>2010-10-03T07:51:16Z</time>
      </trkpt>
      <trkpt lat="47.12905" lon="-1.60452">
        <ele>15.0377197</ele>
        <time>2010-10-03T07:51:26Z</time>
      </trkpt>
      <trkpt lat="47.12922" lon="-1.60387">
        <ele>15.0377197</ele>
        <time>2010-10-03T07:51:36Z</time>
      </trkpt>
      <trkpt lat="47.12932" lon="-1.60321">
        <ele>14.076416</ele>
        <time>2010-10-03T07:51:45Z</time>
      </trkpt>
      <trkpt lat="47.12947" lon="-1.60257">
        <ele>13.1151123</ele>
        <time>2010-10-03T07:51:54Z</time>
      </trkpt>
      <trkpt lat="47.12972" lon="-1.60196">
        <ele>12.1538086</ele>
        <time>2010-10-03T07:52:04Z</time>
      </trkpt>
      <trkpt lat="47.1299" lon="-1.60133">
        <ele>9.7506104</ele>
        <time>2010-10-03T07:52:13Z</time>
      </trkpt>
      <trkpt lat="47.13001" lon="-1.60067">
        <ele>5.9052734</ele>
        <time>2010-10-03T07:52:22Z</time>
      </trkpt>
      <trkpt lat="47.13024" lon="-1.60002">
        <ele>3.5019531</ele>
        <time>2010-10-03T07:52:32Z</time>
      </trkpt>
      <trkpt lat="47.1307" lon="-1.59988">
        <ele>6.3858643</ele>
        <time>2010-10-03T07:52:41Z</time>
      </trkpt>
      <trkpt lat="47.13119" lon="-1.59987">
        <ele>9.7506104</ele>
        <time>2010-10-03T07:52:51Z</time>
      </trkpt>
      <trkpt lat="47.13168" lon="-1.59986">
        <ele>10.711792</ele>
        <time>2010-10-03T07:53:01Z</time>
      </trkpt>
      <trkpt lat="47.13214" lon="-1.59981">
        <ele>12.6343994</ele>
        <time>2010-10-03T07:53:12Z</time>
      </trkpt>
      <trkpt lat="47.13244" lon="-1.5993">
        <ele>14.5570068</ele>
        <time>2010-10-03T07:53:22Z</time>
      </trkpt>
      <trkpt lat="47.13286" lon="-1.59893">
        <ele>14.5570068</ele>
        <time>2010-10-03T07:53:32Z</time>
      </trkpt>
      <trkpt lat="47.13298" lon="-1.59843">
        <ele>15.5184326</ele>
        <time>2010-10-03T07:53:45Z</time>
      </trkpt>
      <trkpt lat="47.13291" lon="-1.59773">
        <ele>15.9990234</ele>
        <time>2010-10-03T07:53:56Z</time>
      </trkpt>
      <trkpt lat="47.13295" lon="-1.59701">
        <ele>14.5570068</ele>
        <time>2010-10-03T07:54:07Z</time>
      </trkpt>
      <trkpt lat="47.13299" lon="-1.5963">
        <ele>8.7891846</ele>
        <time>2010-10-03T07:54:18Z</time>
      </trkpt>
      <trkpt lat="47.13313" lon="-1.59562">
        <ele>8.3085938</ele>
        <time>2010-10-03T07:54:28Z</time>
      </trkpt>
      <trkpt lat="47.13327" lon="-1.59491">
        <ele>11.1925049</ele>
        <time>2010-10-03T07:54:39Z</time>
      </trkpt>
      <trkpt lat="47.13338" lon="-1.59423">
        <ele>12.6343994</ele>
        <time>2010-10-03T07:54:50Z</time>
      </trkpt>
      <trkpt lat="47.13354" lon="-1.59354">
        <ele>10.711792</ele>
        <time>2010-10-03T07:55:01Z</time>
      </trkpt>
      <trkpt lat="47.13372" lon="-1.59289">
        <ele>9.7506104</ele>
        <time>2010-10-03T07:55:11Z</time>
      </trkpt>
      <trkpt lat="47.13396" lon="-1.59228">
        <ele>10.711792</ele>
        <time>2010-10-03T07:55:21Z</time>
      </trkpt>
      <trkpt lat="47.13422" lon="-1.59166">
        <ele>13.1151123</ele>
        <time>2010-10-03T07:55:31Z</time>
      </trkpt>
      <trkpt lat="47.13442" lon="-1.59098">
        <ele>15.0377197</ele>
        <time>2010-10-03T07:55:41Z</time>
      </trkpt>
      <trkpt lat="47.13451" lon="-1.59025">
        <ele>15.0377197</ele>
        <time>2010-10-03T07:55:51Z</time>
      </trkpt>
      <trkpt lat="47.13465" lon="-1.58953">
        <ele>14.5570068</ele>
        <time>2010-10-03T07:56:01Z</time>
      </trkpt>
      <trkpt lat="47.13482" lon="-1.58884">
        <ele>11.6732178</ele>
        <time>2010-10-03T07:56:10Z</time>
      </trkpt>
      <trkpt lat="47.13516" lon="-1.58838">
        <ele>9.2698975</ele>
        <time>2010-10-03T07:56:20Z</time>
      </trkpt>
      <trkpt lat="47.13565" lon="-1.58846">
        <ele>9.2698975</ele>
        <time>2010-10-03T07:56:30Z</time>
      </trkpt>
      <trkpt lat="47.13611" lon="-1.58859">
        <ele>9.7506104</ele>
        <time>2010-10-03T07:56:40Z</time>
      </trkpt>
      <trkpt lat="47.13659" lon="-1.58889">
        <ele>9.2698975</ele>
        <time>2010-10-03T07:56:51Z</time>
      </trkpt>
      <trkpt lat="47.13703" lon="-1.58919">
        <ele>10.711792</ele>
        <time>2010-10-03T07:57:01Z</time>
      </trkpt>
      <trkpt lat="47.13747" lon="-1.58956">
        <ele>13.1151123</ele>
        <time>2010-10-03T07:57:11Z</time>
      </trkpt>
      <trkpt lat="47.13784" lon="-1.59009">
        <ele>15.0377197</ele>
        <time>2010-10-03T07:57:20Z</time>
      </trkpt>
      <trkpt lat="47.13818" lon="-1.59066">
        <ele>17.4411621</ele>
        <time>2010-10-03T07:57:30Z</time>
      </trkpt>
      <trkpt lat="47.13847" lon="-1.5912">
        <ele>17.4411621</ele>
        <time>2010-10-03T07:57:40Z</time>
      </trkpt>
      <trkpt lat="47.13862" lon="-1.59174">
        <ele>18.4023438</ele>
        <time>2010-10-03T07:57:51Z</time>
      </trkpt>
      <trkpt lat="47.13823" lon="-1.59209">
        <ele>19.8443604</ele>
        <time>2010-10-03T07:58:01Z</time>
      </trkpt>
      <trkpt lat="47.13789" lon="-1.59256">
        <ele>21.7669678</ele>
        <time>2010-10-03T07:58:11Z</time>
      </trkpt>
      <trkpt lat="47.13755" lon="-1.59312">
        <ele>22.2475586</ele>
        <time>2010-10-03T07:58:22Z</time>
      </trkpt>
      <trkpt lat="47.13721" lon="-1.59362">
        <ele>21.286377</ele>
        <time>2010-10-03T07:58:33Z</time>
      </trkpt>
      <trkpt lat="47.1368" lon="-1.59413">
        <ele>21.7669678</ele>
        <time>2010-10-03T07:58:44Z</time>
      </trkpt>
      <trkpt lat="47.13644" lon="-1.59462">
        <ele>22.2475586</ele>
        <time>2010-10-03T07:58:56Z</time>
      </trkpt>
      <trkpt lat="47.13611" lon="-1.59522">
        <ele>23.2089844</ele>
        <time>2010-10-03T07:59:09Z</time>
      </trkpt>
      <trkpt lat="47.13591" lon="-1.59586">
        <ele>23.6895752</ele>
        <time>2010-10-03T07:59:24Z</time>
      </trkpt>
      <trkpt lat="47.13626" lon="-1.59633">
        <ele>25.6123047</ele>
        <time>2010-10-03T07:59:36Z</time>
      </trkpt>
      <trkpt lat="47.13665" lon="-1.59671">
        <ele>24.651001</ele>
        <time>2010-10-03T07:59:46Z</time>
      </trkpt>
      <trkpt lat="47.13707" lon="-1.59704">
        <ele>25.6123047</ele>
        <time>2010-10-03T07:59:56Z</time>
      </trkpt>
      <trkpt lat="47.13746" lon="-1.59742">
        <ele>25.1317139</ele>
        <time>2010-10-03T08:00:07Z</time>
      </trkpt>
      <trkpt lat="47.13783" lon="-1.59786">
        <ele>24.1702881</ele>
        <time>2010-10-03T08:00:17Z</time>
      </trkpt>
      <trkpt lat="47.13822" lon="-1.59828">
        <ele>23.6895752</ele>
        <time>2010-10-03T08:00:27Z</time>
      </trkpt>
      <trkpt lat="47.1386" lon="-1.59875">
        <ele>23.6895752</ele>
        <time>2010-10-03T08:00:37Z</time>
      </trkpt>
      <trkpt lat="47.13896" lon="-1.59921">
        <ele>26.0928955</ele>
        <time>2010-10-03T08:00:47Z</time>
      </trkpt>
      <trkpt lat="47.13929" lon="-1.59969">
        <ele>28.4962158</ele>
        <time>2010-10-03T08:00:57Z</time>
      </trkpt>
      <trkpt lat="47.13968" lon="-1.60013">
        <ele>28.0155029</ele>
        <time>2010-10-03T08:01:07Z</time>
      </trkpt>
      <trkpt lat="47.14013" lon="-1.6004">
        <ele>28.4962158</ele>
        <time>2010-10-03T08:01:17Z</time>
      </trkpt>
      <trkpt lat="47.14057" lon="-1.60065">
        <ele>28.9769287</ele>
        <time>2010-10-03T08:01:27Z</time>
      </trkpt>
      <trkpt lat="47.14101" lon="-1.60094">
        <ele>28.0155029</ele>
        <time>2010-10-03T08:01:37Z</time>
      </trkpt>
      <trkpt lat="47.14139" lon="-1.60136">
        <ele>27.0543213</ele>
        <time>2010-10-03T08:01:47Z</time>
      </trkpt>
      <trkpt lat="47.14168" lon="-1.60187">
        <ele>26.5736084</ele>
        <time>2010-10-03T08:01:57Z</time>
      </trkpt>
      <trkpt lat="47.14207" lon="-1.60194">
        <ele>26.5736084</ele>
        <time>2010-10-03T08:02:08Z</time>
      </trkpt>
      <trkpt lat="47.14245" lon="-1.60155">
        <ele>25.6123047</ele>
        <time>2010-10-03T08:02:18Z</time>
      </trkpt>
      <trkpt lat="47.14282" lon="-1.60113">
        <ele>24.651001</ele>
        <time>2010-10-03T08:02:28Z</time>
      </trkpt>
      <trkpt lat="47.14324" lon="-1.60068">
        <ele>23.6895752</ele>
        <time>2010-10-03T08:02:38Z</time>
      </trkpt>
      <trkpt lat="47.14367" lon="-1.60024">
        <ele>22.2475586</ele>
        <time>2010-10-03T08:02:47Z</time>
      </trkpt>
      <trkpt lat="47.14404" lon="-1.59983">
        <ele>20.8056641</ele>
        <time>2010-10-03T08:02:55Z</time>
      </trkpt>
      <trkpt lat="47.14443" lon="-1.59938">
        <ele>20.3249512</ele>
        <time>2010-10-03T08:03:04Z</time>
      </trkpt>
      <trkpt lat="47.14482" lon="-1.59892">
        <ele>21.7669678</ele>
        <time>2010-10-03T08:03:14Z</time>
      </trkpt>
      <trkpt lat="47.14524" lon="-1.59878">
        <ele>22.7282715</ele>
        <time>2010-10-03T08:03:27Z</time>
      </trkpt>
      <trkpt lat="47.14565" lon="-1.59912">
        <ele>22.7282715</ele>
        <time>2010-10-03T08:03:38Z</time>
      </trkpt>
      <trkpt lat="47.14605" lon="-1.59947">
        <ele>24.651001</ele>
        <time>2010-10-03T08:03:48Z</time>
      </trkpt>
      <trkpt lat="47.14645" lon="-1.59983">
        <ele>25.6123047</ele>
        <time>2010-10-03T08:04:03Z</time>
      </trkpt>
      <trkpt lat="47.1469" lon="-1.60019">
        <ele>28.0155029</ele>
        <time>2010-10-03T08:04:15Z</time>
      </trkpt>
      <trkpt lat="47.14732" lon="-1.60057">
        <ele>28.9769287</ele>
        <time>2010-10-03T08:04:26Z</time>
      </trkpt>
      <trkpt lat="47.14778" lon="-1.60099">
        <ele>35.2254639</ele>
        <time>2010-10-03T08:04:38Z</time>
      </trkpt>
      <trkpt lat="47.14824" lon="-1.60136">
        <ele>45.3192139</ele>
        <time>2010-10-03T08:04:50Z</time>
      </trkpt>
      <trkpt lat="47.14875" lon="-1.60146">
        <ele>46.2806396</ele>
        <time>2010-10-03T08:05:01Z</time>
      </trkpt>
      <trkpt lat="47.14926" lon="-1.60181">
        <ele>39.0706787</ele>
        <time>2010-10-03T08:05:18Z</time>
      </trkpt>
      <trkpt lat="47.14943" lon="-1.60246">
        <ele>34.744873</ele>
        <time>2010-10-03T08:05:29Z</time>
      </trkpt>
      <trkpt lat="47.14963" lon="-1.60313">
        <ele>32.8222656</ele>
        <time>2010-10-03T08:05:42Z</time>
      </trkpt>
      <trkpt lat="47.1498" lon="-1.60375">
        <ele>32.3415527</ele>
        <time>2010-10-03T08:05:53Z</time>
      </trkpt>
      <trkpt lat="47.15001" lon="-1.60439">
        <ele>31.8607178</ele>
        <time>2010-10-03T08:06:05Z</time>
      </trkpt>
      <trkpt lat="47.14999" lon="-1.60501">
        <ele>31.8607178</ele>
        <time>2010-10-03T08:06:17Z</time>
      </trkpt>
      <trkpt lat="47.1497" lon="-1.60556">
        <ele>30.4188232</ele>
        <time>2010-10-03T08:06:27Z</time>
      </trkpt>
      <trkpt lat="47.14946" lon="-1.60614">
        <ele>29.4575195</ele>
        <time>2010-10-03T08:06:37Z</time>
      </trkpt>
      <trkpt lat="47.14921" lon="-1.6067">
        <ele>28.4962158</ele>
        <time>2010-10-03T08:06:46Z</time>
      </trkpt>
      <trkpt lat="47.14898" lon="-1.60733">
        <ele>28.0155029</ele>
        <time>2010-10-03T08:06:56Z</time>
      </trkpt>
      <trkpt lat="47.14878" lon="-1.60799">
        <ele>27.5349121</ele>
        <time>2010-10-03T08:07:06Z</time>
      </trkpt>
      <trkpt lat="47.14861" lon="-1.60859">
        <ele>27.0543213</ele>
        <time>2010-10-03T08:07:15Z</time>
      </trkpt>
      <trkpt lat="47.14846" lon="-1.60923">
        <ele>27.0543213</ele>
        <time>2010-10-03T08:07:24Z</time>
      </trkpt>
      <trkpt lat="47.14833" lon="-1.60987">
        <ele>26.0928955</ele>
        <time>2010-10-03T08:07:33Z</time>
      </trkpt>
      <trkpt lat="47.14802" lon="-1.61038">
        <ele>26.0928955</ele>
        <time>2010-10-03T08:07:43Z</time>
      </trkpt>
      <trkpt lat="47.14764" lon="-1.61079">
        <ele>25.6123047</ele>
        <time>2010-10-03T08:07:52Z</time>
      </trkpt>
      <trkpt lat="47.14727" lon="-1.61121">
        <ele>26.0928955</ele>
        <time>2010-10-03T08:08:01Z</time>
      </trkpt>
      <trkpt lat="47.14699" lon="-1.61173">
        <ele>26.5736084</ele>
        <time>2010-10-03T08:08:10Z</time>
      </trkpt>
      <trkpt lat="47.14668" lon="-1.61226">
        <ele>26.0928955</ele>
        <time>2010-10-03T08:08:20Z</time>
      </trkpt>
      <trkpt lat="47.14623" lon="-1.61261">
        <ele>25.1317139</ele>
        <time>2010-10-03T08:08:30Z</time>
      </trkpt>
      <trkpt lat="47.14579" lon="-1.61295">
        <ele>22.7282715</ele>
        <time>2010-10-03T08:08:39Z</time>
      </trkpt>
      <trkpt lat="47.1453" lon="-1.61315">
        <ele>21.7669678</ele>
        <time>2010-10-03T08:08:48Z</time>
      </trkpt>
      <trkpt lat="47.14484" lon="-1.61291">
        <ele>21.286377</ele>
        <time>2010-10-03T08:08:56Z</time>
      </trkpt>
      <trkpt lat="47.14436" lon="-1.61273">
        <ele>20.3249512</ele>
        <time>2010-10-03T08:09:05Z</time>
      </trkpt>
      <trkpt lat="47.14392" lon="-1.61258">
        <ele>20.8056641</ele>
        <time>2010-10-03T08:09:14Z</time>
      </trkpt>
      <trkpt lat="47.14343" lon="-1.61252">
        <ele>21.7669678</ele>
        <time>2010-10-03T08:09:24Z</time>
      </trkpt>
      <trkpt lat="47.14296" lon="-1.61251">
        <ele>21.286377</ele>
        <time>2010-10-03T08:09:33Z</time>
      </trkpt>
      <trkpt lat="47.14249" lon="-1.61253">
        <ele>21.286377</ele>
        <time>2010-10-03T08:09:42Z</time>
      </trkpt>
      <trkpt lat="47.14203" lon="-1.61254">
        <ele>19.8443604</ele>
        <time>2010-10-03T08:09:51Z</time>
      </trkpt>
      <trkpt lat="47.14174" lon="-1.61203">
        <ele>18.4023438</ele>
        <time>2010-10-03T08:09:59Z</time>
      </trkpt>
      <trkpt lat="47.14149" lon="-1.61144">
        <ele>17.9217529</ele>
        <time>2010-10-03T08:10:08Z</time>
      </trkpt>
      <trkpt lat="47.14116" lon="-1.61095">
        <ele>16.9604492</ele>
        <time>2010-10-03T08:10:21Z</time>
      </trkpt>
      <trkpt lat="47.14088" lon="-1.61148">
        <ele>16.4797363</ele>
        <time>2010-10-03T08:10:32Z</time>
      </trkpt>
      <trkpt lat="47.14058" lon="-1.61203">
        <ele>17.4411621</ele>
        <time>2010-10-03T08:10:42Z</time>
      </trkpt>
      <trkpt lat="47.14036" lon="-1.61262">
        <ele>16.9604492</ele>
        <time>2010-10-03T08:10:52Z</time>
      </trkpt>
      <trkpt lat="47.14029" lon="-1.61327">
        <ele>16.4797363</ele>
        <time>2010-10-03T08:11:04Z</time>
      </trkpt>
      <trkpt lat="47.14004" lon="-1.61387">
        <ele>16.4797363</ele>
        <time>2010-10-03T08:11:15Z</time>
      </trkpt>
      <trkpt lat="47.13965" lon="-1.61425">
        <ele>17.4411621</ele>
        <time>2010-10-03T08:11:25Z</time>
      </trkpt>
      <trkpt lat="47.13928" lon="-1.61473">
        <ele>17.4411621</ele>
        <time>2010-10-03T08:11:35Z</time>
      </trkpt>
      <trkpt lat="47.13892" lon="-1.61523">
        <ele>18.4023438</ele>
        <time>2010-10-03T08:11:45Z</time>
      </trkpt>
      <trkpt lat="47.13856" lon="-1.61574">
        <ele>18.4023438</ele>
        <time>2010-10-03T08:11:55Z</time>
      </trkpt>
      <trkpt lat="47.13824" lon="-1.61618">
        <ele>19.3637695</ele>
        <time>2010-10-03T08:12:04Z</time>
      </trkpt>
      <trkpt lat="47.13788" lon="-1.61668">
        <ele>19.8443604</ele>
        <time>2010-10-03T08:12:14Z</time>
      </trkpt>
      <trkpt lat="47.13755" lon="-1.61713">
        <ele>19.3637695</ele>
        <time>2010-10-03T08:12:23Z</time>
      </trkpt>
      <trkpt lat="47.13736" lon="-1.61777">
        <ele>18.8830566</ele>
        <time>2010-10-03T08:12:32Z</time>
      </trkpt>
      <trkpt lat="47.13724" lon="-1.61844">
        <ele>18.4023438</ele>
        <time>2010-10-03T08:12:42Z</time>
      </trkpt>
      <trkpt lat="47.13721" lon="-1.61912">
        <ele>18.4023438</ele>
        <time>2010-10-03T08:12:53Z</time>
      </trkpt>
      <trkpt lat="47.13726" lon="-1.61981">
        <ele>17.9217529</ele>
        <time>2010-10-03T08:13:03Z</time>
      </trkpt>
      <trkpt lat="47.13736" lon="-1.6205">
        <ele>19.8443604</ele>
        <time>2010-10-03T08:13:13Z</time>
      </trkpt>
      <trkpt lat="47.13746" lon="-1.62123">
        <ele>20.8056641</ele>
        <time>2010-10-03T08:13:23Z</time>
      </trkpt>
      <trkpt lat="47.13754" lon="-1.6219">
        <ele>21.286377</ele>
        <time>2010-10-03T08:13:32Z</time>
      </trkpt>
      <trkpt lat="47.13761" lon="-1.62255">
        <ele>21.286377</ele>
        <time>2010-10-03T08:13:41Z</time>
      </trkpt>
      <trkpt lat="47.13765" lon="-1.62325">
        <ele>19.3637695</ele>
        <time>2010-10-03T08:13:51Z</time>
      </trkpt>
      <trkpt lat="47.13762" lon="-1.62398">
        <ele>16.9604492</ele>
        <time>2010-10-03T08:14:00Z</time>
      </trkpt>
      <trkpt lat="47.13767" lon="-1.62462">
        <ele>15.5184326</ele>
        <time>2010-10-03T08:14:07Z</time>
      </trkpt>
      <trkpt lat="47.13774" lon="-1.62534">
        <ele>15.5184326</ele>
        <time>2010-10-03T08:14:15Z</time>
      </trkpt>
      <trkpt lat="47.13782" lon="-1.626">
        <ele>16.4797363</ele>
        <time>2010-10-03T08:14:24Z</time>
      </trkpt>
      <trkpt lat="47.13787" lon="-1.62674">
        <ele>18.4023438</ele>
        <time>2010-10-03T08:14:35Z</time>
      </trkpt>
      <trkpt lat="47.13785" lon="-1.62752">
        <ele>22.2475586</ele>
        <time>2010-10-03T08:14:46Z</time>
      </trkpt>
      <trkpt lat="47.13803" lon="-1.62819">
        <ele>23.2089844</ele>
        <time>2010-10-03T08:14:57Z</time>
      </trkpt>
      <trkpt lat="47.13825" lon="-1.62882">
        <ele>21.7669678</ele>
        <time>2010-10-03T08:15:08Z</time>
      </trkpt>
      <trkpt lat="47.13864" lon="-1.62857">
        <ele>21.286377</ele>
        <time>2010-10-03T08:15:18Z</time>
      </trkpt>
      <trkpt lat="47.13902" lon="-1.62816">
        <ele>21.286377</ele>
        <time>2010-10-03T08:15:28Z</time>
      </trkpt>
      <trkpt lat="47.13942" lon="-1.62774">
        <ele>20.8056641</ele>
        <time>2010-10-03T08:15:38Z</time>
      </trkpt>
      <trkpt lat="47.13983" lon="-1.62742">
        <ele>21.7669678</ele>
        <time>2010-10-03T08:15:48Z</time>
      </trkpt>
      <trkpt lat="47.14027" lon="-1.6273">
        <ele>21.7669678</ele>
        <time>2010-10-03T08:15:58Z</time>
      </trkpt>
      <trkpt lat="47.14068" lon="-1.62765">
        <ele>22.7282715</ele>
        <time>2010-10-03T08:16:08Z</time>
      </trkpt>
      <trkpt lat="47.14103" lon="-1.62812">
        <ele>24.1702881</ele>
        <time>2010-10-03T08:16:18Z</time>
      </trkpt>
      <trkpt lat="47.14138" lon="-1.6286">
        <ele>24.1702881</ele>
        <time>2010-10-03T08:16:28Z</time>
      </trkpt>
      <trkpt lat="47.14171" lon="-1.62906">
        <ele>26.5736084</ele>
        <time>2010-10-03T08:16:41Z</time>
      </trkpt>
      <trkpt lat="47.14209" lon="-1.62941">
        <ele>25.6123047</ele>
        <time>2010-10-03T08:16:52Z</time>
      </trkpt>
      <trkpt lat="47.14242" lon="-1.62992">
        <ele>25.6123047</ele>
        <time>2010-10-03T08:17:04Z</time>
      </trkpt>
      <trkpt lat="47.14274" lon="-1.63047">
        <ele>23.6895752</ele>
        <time>2010-10-03T08:17:17Z</time>
      </trkpt>
      <trkpt lat="47.14318" lon="-1.63079">
        <ele>25.6123047</ele>
        <time>2010-10-03T08:17:29Z</time>
      </trkpt>
      <trkpt lat="47.14364" lon="-1.63106">
        <ele>27.0543213</ele>
        <time>2010-10-03T08:17:41Z</time>
      </trkpt>
      <trkpt lat="47.14412" lon="-1.63131">
        <ele>27.5349121</ele>
        <time>2010-10-03T08:17:52Z</time>
      </trkpt>
      <trkpt lat="47.14461" lon="-1.63146">
        <ele>29.4575195</ele>
        <time>2010-10-03T08:18:03Z</time>
      </trkpt>
      <trkpt lat="47.14507" lon="-1.63147">
        <ele>29.4575195</ele>
        <time>2010-10-03T08:18:13Z</time>
      </trkpt>
      <trkpt lat="47.14556" lon="-1.63141">
        <ele>28.9769287</ele>
        <time>2010-10-03T08:18:23Z</time>
      </trkpt>
      <trkpt lat="47.14606" lon="-1.63117">
        <ele>26.0928955</ele>
        <time>2010-10-03T08:18:33Z</time>
      </trkpt>
      <trkpt lat="47.14648" lon="-1.63091">
        <ele>25.1317139</ele>
        <time>2010-10-03T08:18:42Z</time>
      </trkpt>
      <trkpt lat="47.14692" lon="-1.63075">
        <ele>24.651001</ele>
        <time>2010-10-03T08:18:51Z</time>
      </trkpt>
      <trkpt lat="47.14743" lon="-1.63072">
        <ele>25.1317139</ele>
        <time>2010-10-03T08:19:01Z</time>
      </trkpt>
      <trkpt lat="47.14787" lon="-1.63068">
        <ele>25.6123047</ele>
        <time>2010-10-03T08:19:09Z</time>
      </trkpt>
      <trkpt lat="47.14836" lon="-1.63065">
        <ele>27.0543213</ele>
        <time>2010-10-03T08:19:18Z</time>
      </trkpt>
      <trkpt lat="47.14879" lon="-1.63074">
        <ele>30.8995361</ele>
        <time>2010-10-03T08:19:29Z</time>
      </trkpt>
      <trkpt lat="47.14872" lon="-1.63145">
        <ele>29.9381104</ele>
        <time>2010-10-03T08:19:39Z</time>
      </trkpt>
      <trkpt lat="47.14885" lon="-1.63197">
        <ele>29.9381104</ele>
        <time>2010-10-03T08:19:49Z</time>
      </trkpt>
      <trkpt lat="47.14925" lon="-1.63244">
        <ele>29.4575195</ele>
        <time>2010-10-03T08:19:59Z</time>
      </trkpt>
      <trkpt lat="47.14963" lon="-1.63294">
        <ele>28.0155029</ele>
        <time>2010-10-03T08:20:09Z</time>
      </trkpt>
      <trkpt lat="47.14998" lon="-1.6334">
        <ele>28.0155029</ele>
        <time>2010-10-03T08:20:18Z</time>
      </trkpt>
      <trkpt lat="47.15033" lon="-1.63389">
        <ele>27.5349121</ele>
        <time>2010-10-03T08:20:27Z</time>
      </trkpt>
      <trkpt lat="47.15068" lon="-1.63444">
        <ele>27.5349121</ele>
        <time>2010-10-03T08:20:36Z</time>
      </trkpt>
      <trkpt lat="47.15097" lon="-1.63499">
        <ele>28.0155029</ele>
        <time>2010-10-03T08:20:45Z</time>
      </trkpt>
      <trkpt lat="47.15126" lon="-1.63555">
        <ele>27.0543213</ele>
        <time>2010-10-03T08:20:54Z</time>
      </trkpt>
      <trkpt lat="47.15165" lon="-1.63532">
        <ele>26.5736084</ele>
        <time>2010-10-03T08:21:06Z</time>
      </trkpt>
      <trkpt lat="47.152" lon="-1.6349">
        <ele>26.0928955</ele>
        <time>2010-10-03T08:21:17Z</time>
      </trkpt>
      <trkpt lat="47.1524" lon="-1.63442">
        <ele>25.1317139</ele>
        <time>2010-10-03T08:21:27Z</time>
      </trkpt>
      <trkpt lat="47.15278" lon="-1.63396">
        <ele>23.6895752</ele>
        <time>2010-10-03T08:21:36Z</time>
      </trkpt>
      <trkpt lat="47.15315" lon="-1.63352">
        <ele>22.2475586</ele>
        <time>2010-10-03T08:21:44Z</time>
      </trkpt>
      <trkpt lat="47.15349" lon="-1.6331">
        <ele>20.3249512</ele>
        <time>2010-10-03T08:21:51Z</time>
      </trkpt>
      <trkpt lat="47.15389" lon="-1.63263">
        <ele>18.8830566</ele>
        <time>2010-10-03T08:21:59Z</time>
      </trkpt>
      <trkpt lat="47.15422" lon="-1.63209">
        <ele>18.4023438</ele>
        <time>2010-10-03T08:22:07Z</time>
      </trkpt>
      <trkpt lat="47.15455" lon="-1.63156">
        <ele>19.3637695</ele>
        <time>2010-10-03T08:22:15Z</time>
      </trkpt>
      <trkpt lat="47.15487" lon="-1.63106">
        <ele>18.4023438</ele>
        <time>2010-10-03T08:22:23Z</time>
      </trkpt>
      <trkpt lat="47.15525" lon="-1.63057">
        <ele>17.9217529</ele>
        <time>2010-10-03T08:22:31Z</time>
      </trkpt>
      <trkpt lat="47.15561" lon="-1.63009">
        <ele>16.9604492</ele>
        <time>2010-10-03T08:22:39Z</time>
      </trkpt>
      <trkpt lat="47.15599" lon="-1.62959">
        <ele>16.4797363</ele>
        <time>2010-10-03T08:22:47Z</time>
      </trkpt>
      <trkpt lat="47.15642" lon="-1.62917">
        <ele>16.9604492</ele>
        <time>2010-10-03T08:22:55Z</time>
      </trkpt>
      <trkpt lat="47.15684" lon="-1.62882">
        <ele>17.4411621</ele>
        <time>2010-10-03T08:23:03Z</time>
      </trkpt>
      <trkpt lat="47.15722" lon="-1.62843">
        <ele>18.8830566</ele>
        <time>2010-10-03T08:23:12Z</time>
      </trkpt>
      <trkpt lat="47.15727" lon="-1.62775">
        <ele>18.8830566</ele>
        <time>2010-10-03T08:23:20Z</time>
      </trkpt>
      <trkpt lat="47.15726" lon="-1.627">
        <ele>15.5184326</ele>
        <time>2010-10-03T08:23:29Z</time>
      </trkpt>
      <trkpt lat="47.15726" lon="-1.62624">
        <ele>13.5958252</ele>
        <time>2010-10-03T08:23:38Z</time>
      </trkpt>
      <trkpt lat="47.15723" lon="-1.62551">
        <ele>12.6343994</ele>
        <time>2010-10-03T08:23:47Z</time>
      </trkpt>
      <trkpt lat="47.1572" lon="-1.62476">
        <ele>11.1925049</ele>
        <time>2010-10-03T08:23:56Z</time>
      </trkpt>
      <trkpt lat="47.15716" lon="-1.62405">
        <ele>10.711792</ele>
        <time>2010-10-03T08:24:05Z</time>
      </trkpt>
      <trkpt lat="47.15727" lon="-1.62344">
        <ele>10.2312012</ele>
        <time>2010-10-03T08:24:17Z</time>
      </trkpt>
      <trkpt lat="47.15744" lon="-1.62282">
        <ele>12.1538086</ele>
        <time>2010-10-03T08:24:33Z</time>
      </trkpt>
      <trkpt lat="47.15782" lon="-1.62244">
        <ele>13.1151123</ele>
        <time>2010-10-03T08:24:50Z</time>
      </trkpt>
      <trkpt lat="47.15834" lon="-1.6222">
        <ele>14.076416</ele>
        <time>2010-10-03T08:24:59Z</time>
      </trkpt>
      <trkpt lat="47.15882" lon="-1.6221">
        <ele>14.076416</ele>
        <time>2010-10-03T08:25:07Z</time>
      </trkpt>
      <trkpt lat="47.15866" lon="-1.62273">
        <ele>13.1151123</ele>
        <time>2010-10-03T08:25:14Z</time>
      </trkpt>
      <trkpt lat="47.15852" lon="-1.62336">
        <ele>13.1151123</ele>
        <time>2010-10-03T08:25:26Z</time>
      </trkpt>
      <trkpt lat="47.15815" lon="-1.6237">
        <ele>11.1925049</ele>
        <time>2010-10-03T08:25:43Z</time>
      </trkpt>
      <trkpt lat="47.15791" lon="-1.62429">
        <ele>10.711792</ele>
        <time>2010-10-03T08:25:57Z</time>
      </trkpt>
      <trkpt lat="47.15797" lon="-1.62493">
        <ele>11.6732178</ele>
        <time>2010-10-03T08:26:10Z</time>
      </trkpt>
      <trkpt lat="47.15834" lon="-1.62524">
        <ele>12.6343994</ele>
        <time>2010-10-03T08:26:21Z</time>
      </trkpt>
      <trkpt lat="47.15881" lon="-1.62523">
        <ele>13.1151123</ele>
        <time>2010-10-03T08:26:34Z</time>
      </trkpt>
      <trkpt lat="47.15927" lon="-1.62527">
        <ele>17.4411621</ele>
        <time>2010-10-03T08:26:48Z</time>
      </trkpt>
      <trkpt lat="47.15974" lon="-1.62527">
        <ele>21.286377</ele>
        <time>2010-10-03T08:27:04Z</time>
      </trkpt>
      <trkpt lat="47.16023" lon="-1.62528">
        <ele>25.6123047</ele>
        <time>2010-10-03T08:27:19Z</time>
      </trkpt>
      <trkpt lat="47.1607" lon="-1.62531">
        <ele>27.5349121</ele>
        <time>2010-10-03T08:27:28Z</time>
      </trkpt>
      <trkpt lat="47.16118" lon="-1.6253">
        <ele>28.9769287</ele>
        <time>2010-10-03T08:27:39Z</time>
      </trkpt>
      <trkpt lat="47.16167" lon="-1.62533">
        <ele>35.2254639</ele>
        <time>2010-10-03T08:27:50Z</time>
      </trkpt>
      <trkpt lat="47.16222" lon="-1.62537">
        <ele>34.2641602</ele>
        <time>2010-10-03T08:28:01Z</time>
      </trkpt>
      <trkpt lat="47.16273" lon="-1.62549">
        <ele>33.7834473</ele>
        <time>2010-10-03T08:28:14Z</time>
      </trkpt>
      <trkpt lat="47.1632" lon="-1.6257">
        <ele>33.7834473</ele>
        <time>2010-10-03T08:28:30Z</time>
      </trkpt>
      <trkpt lat="47.16369" lon="-1.62583">
        <ele>33.3028564</ele>
        <time>2010-10-03T08:28:44Z</time>
      </trkpt>
      <trkpt lat="47.16413" lon="-1.62559">
        <ele>32.8222656</ele>
        <time>2010-10-03T08:28:57Z</time>
      </trkpt>
      <trkpt lat="47.16457" lon="-1.62545">
        <ele>32.8222656</ele>
        <time>2010-10-03T08:29:12Z</time>
      </trkpt>
      <trkpt lat="47.16503" lon="-1.62559">
        <ele>30.8995361</ele>
        <time>2010-10-03T08:29:26Z</time>
      </trkpt>
      <trkpt lat="47.16547" lon="-1.6255">
        <ele>29.9381104</ele>
        <time>2010-10-03T08:29:38Z</time>
      </trkpt>
      <trkpt lat="47.16576" lon="-1.62498">
        <ele>28.0155029</ele>
        <time>2010-10-03T08:29:49Z</time>
      </trkpt>
      <trkpt lat="47.16603" lon="-1.62435">
        <ele>25.6123047</ele>
        <time>2010-10-03T08:29:59Z</time>
      </trkpt>
      <trkpt lat="47.16635" lon="-1.62383">
        <ele>24.1702881</ele>
        <time>2010-10-03T08:30:08Z</time>
      </trkpt>
      <trkpt lat="47.16675" lon="-1.62359">
        <ele>22.7282715</ele>
        <time>2010-10-03T08:30:16Z</time>
      </trkpt>
      <trkpt lat="47.16716" lon="-1.62394">
        <ele>21.286377</ele>
        <time>2010-10-03T08:30:25Z</time>
      </trkpt>
      <trkpt lat="47.16712" lon="-1.62452">
        <ele>21.286377</ele>
        <time>2010-10-03T08:30:37Z</time>
      </trkpt>
      <trkpt lat="47.16724" lon="-1.62507">
        <ele>20.8056641</ele>
        <time>2010-10-03T08:30:50Z</time>
      </trkpt>
      <trkpt lat="47.16714" lon="-1.62571">
        <ele>22.2475586</ele>
        <time>2010-10-03T08:31:00Z</time>
      </trkpt>
      <trkpt lat="47.16713" lon="-1.62644">
        <ele>23.2089844</ele>
        <time>2010-10-03T08:31:11Z</time>
      </trkpt>
      <trkpt lat="47.1673" lon="-1.62705">
        <ele>23.2089844</ele>
        <time>2010-10-03T08:31:22Z</time>
      </trkpt>
      <trkpt lat="47.1676" lon="-1.62754">
        <ele>23.6895752</ele>
        <time>2010-10-03T08:31:31Z</time>
      </trkpt>
      <trkpt lat="47.16799" lon="-1.6279">
        <ele>23.2089844</ele>
        <time>2010-10-03T08:31:41Z</time>
      </trkpt>
      <trkpt lat="47.1684" lon="-1.62828">
        <ele>25.1317139</ele>
        <time>2010-10-03T08:31:53Z</time>
      </trkpt>
      <trkpt lat="47.16879" lon="-1.62867">
        <ele>27.5349121</ele>
        <time>2010-10-03T08:32:04Z</time>
      </trkpt>
      <trkpt lat="47.16921" lon="-1.62904">
        <ele>28.9769287</ele>
        <time>2010-10-03T08:32:15Z</time>
      </trkpt>
      <trkpt lat="47.16958" lon="-1.62891">
        <ele>29.9381104</ele>
        <time>2010-10-03T08:32:33Z</time>
      </trkpt>
      <trkpt lat="47.16989" lon="-1.62841">
        <ele>29.4575195</ele>
        <time>2010-10-03T08:32:44Z</time>
      </trkpt>
      <trkpt lat="47.17022" lon="-1.6279">
        <ele>28.9769287</ele>
        <time>2010-10-03T08:32:57Z</time>
      </trkpt>
      <trkpt lat="47.17052" lon="-1.62744">
        <ele>28.9769287</ele>
        <time>2010-10-03T08:33:12Z</time>
      </trkpt>
      <trkpt lat="47.17083" lon="-1.62694">
        <ele>28.0155029</ele>
        <time>2010-10-03T08:33:25Z</time>
      </trkpt>
      <trkpt lat="47.17114" lon="-1.62645">
        <ele>26.5736084</ele>
        <time>2010-10-03T08:33:35Z</time>
      </trkpt>
      <trkpt lat="47.17158" lon="-1.62625">
        <ele>27.0543213</ele>
        <time>2010-10-03T08:33:46Z</time>
      </trkpt>
      <trkpt lat="47.17201" lon="-1.62601">
        <ele>26.0928955</ele>
        <time>2010-10-03T08:33:57Z</time>
      </trkpt>
      <trkpt lat="47.1724" lon="-1.62579">
        <ele>24.1702881</ele>
        <time>2010-10-03T08:34:09Z</time>
      </trkpt>
      <trkpt lat="47.17268" lon="-1.62634">
        <ele>23.2089844</ele>
        <time>2010-10-03T08:34:20Z</time>
      </trkpt>
      <trkpt lat="47.17312" lon="-1.62647">
        <ele>22.2475586</ele>
        <time>2010-10-03T08:34:31Z</time>
      </trkpt>
      <trkpt lat="47.17354" lon="-1.62679">
        <ele>21.286377</ele>
        <time>2010-10-03T08:34:40Z</time>
      </trkpt>
      <trkpt lat="47.17382" lon="-1.62736">
        <ele>21.286377</ele>
        <time>2010-10-03T08:34:52Z</time>
      </trkpt>
      <trkpt lat="47.17424" lon="-1.62756">
        <ele>21.7669678</ele>
        <time>2010-10-03T08:35:03Z</time>
      </trkpt>
      <trkpt lat="47.17467" lon="-1.62783">
        <ele>20.8056641</ele>
        <time>2010-10-03T08:35:13Z</time>
      </trkpt>
      <trkpt lat="47.17509" lon="-1.62746">
        <ele>20.3249512</ele>
        <time>2010-10-03T08:35:24Z</time>
      </trkpt>
      <trkpt lat="47.1755" lon="-1.62709">
        <ele>19.8443604</ele>
        <time>2010-10-03T08:35:33Z</time>
      </trkpt>
      <trkpt lat="47.17592" lon="-1.62672">
        <ele>20.3249512</ele>
        <time>2010-10-03T08:35:42Z</time>
      </trkpt>
      <trkpt lat="47.17634" lon="-1.62636">
        <ele>23.2089844</ele>
        <time>2010-10-03T08:35:51Z</time>
      </trkpt>
      <trkpt lat="47.17671" lon="-1.62593">
        <ele>25.6123047</ele>
        <time>2010-10-03T08:36:01Z</time>
      </trkpt>
      <trkpt lat="47.17709" lon="-1.62557">
        <ele>26.0928955</ele>
        <time>2010-10-03T08:36:13Z</time>
      </trkpt>
      <trkpt lat="47.17717" lon="-1.62487">
        <ele>27.5349121</ele>
        <time>2010-10-03T08:36:24Z</time>
      </trkpt>
      <trkpt lat="47.17723" lon="-1.62421">
        <ele>27.0543213</ele>
        <time>2010-10-03T08:36:34Z</time>
      </trkpt>
      <trkpt lat="47.17724" lon="-1.62348">
        <ele>27.5349121</ele>
        <time>2010-10-03T08:36:45Z</time>
      </trkpt>
      <trkpt lat="47.17711" lon="-1.62284">
        <ele>26.5736084</ele>
        <time>2010-10-03T08:37:03Z</time>
      </trkpt>
      <trkpt lat="47.17717" lon="-1.62225">
        <ele>27.0543213</ele>
        <time>2010-10-03T08:37:22Z</time>
      </trkpt>
      <trkpt lat="47.17721" lon="-1.62287">
        <ele>26.0928955</ele>
        <time>2010-10-03T08:41:25Z</time>
      </trkpt>
      <trkpt lat="47.17728" lon="-1.62354">
        <ele>25.6123047</ele>
        <time>2010-10-03T08:41:36Z</time>
      </trkpt>
      <trkpt lat="47.17728" lon="-1.62426">
        <ele>25.6123047</ele>
        <time>2010-10-03T08:41:46Z</time>
      </trkpt>
      <trkpt lat="47.1772" lon="-1.62495">
        <ele>25.1317139</ele>
        <time>2010-10-03T08:41:55Z</time>
      </trkpt>
      <trkpt lat="47.17712" lon="-1.6256">
        <ele>21.7669678</ele>
        <time>2010-10-03T08:42:05Z</time>
      </trkpt>
      <trkpt lat="47.17702" lon="-1.62614">
        <ele>20.8056641</ele>
        <time>2010-10-03T08:42:19Z</time>
      </trkpt>
      <trkpt lat="47.17735" lon="-1.62664">
        <ele>20.3249512</ele>
        <time>2010-10-03T08:42:27Z</time>
      </trkpt>
      <trkpt lat="47.17769" lon="-1.62715">
        <ele>20.3249512</ele>
        <time>2010-10-03T08:42:34Z</time>
      </trkpt>
      <trkpt lat="47.17804" lon="-1.62769">
        <ele>19.3637695</ele>
        <time>2010-10-03T08:42:41Z</time>
      </trkpt>
      <trkpt lat="47.17839" lon="-1.62822">
        <ele>18.8830566</ele>
        <time>2010-10-03T08:42:48Z</time>
      </trkpt>
      <trkpt lat="47.17875" lon="-1.62855">
        <ele>18.4023438</ele>
        <time>2010-10-03T08:42:56Z</time>
      </trkpt>
      <trkpt lat="47.17866" lon="-1.6292">
        <ele>15.9990234</ele>
        <time>2010-10-03T08:43:03Z</time>
      </trkpt>
      <trkpt lat="47.17861" lon="-1.62987">
        <ele>13.1151123</ele>
        <time>2010-10-03T08:43:09Z</time>
      </trkpt>
      <trkpt lat="47.17856" lon="-1.63057">
        <ele>10.2312012</ele>
        <time>2010-10-03T08:43:15Z</time>
      </trkpt>
      <trkpt lat="47.1785" lon="-1.63127">
        <ele>8.3085938</ele>
        <time>2010-10-03T08:43:21Z</time>
      </trkpt>
      <trkpt lat="47.17818" lon="-1.63164">
        <ele>6.8664551</ele>
        <time>2010-10-03T08:43:29Z</time>
      </trkpt>
      <trkpt lat="47.17776" lon="-1.63194">
        <ele>7.347168</ele>
        <time>2010-10-03T08:43:36Z</time>
      </trkpt>
      <trkpt lat="47.17741" lon="-1.63249">
        <ele>8.7891846</ele>
        <time>2010-10-03T08:43:44Z</time>
      </trkpt>
      <trkpt lat="47.17703" lon="-1.63284">
        <ele>11.1925049</ele>
        <time>2010-10-03T08:43:51Z</time>
      </trkpt>
      <trkpt lat="47.17717" lon="-1.63325">
        <ele>12.6343994</ele>
        <time>2010-10-03T08:44:02Z</time>
      </trkpt>
      <trkpt lat="47.17755" lon="-1.63357">
        <ele>10.711792</ele>
        <time>2010-10-03T08:44:13Z</time>
      </trkpt>
      <trkpt lat="47.1775" lon="-1.63352">
        <ele>10.2312012</ele>
        <time>2010-10-03T08:44:54Z</time>
      </trkpt>
      <trkpt lat="47.17755" lon="-1.63333">
        <ele>-1.3046875</ele>
        <time>2010-10-03T08:56:06Z</time>
      </trkpt>
    </trkseg>
  </trk>
</gpx>